SR-198 : Just West of SR-99 Atmospheric Data: 11/28/2020 Summary  Detailed Graphs  Station List

  Temperature     Wind Precipitation Visibility
Timestamp Air Wet
Bulb
Dew-
point
24-hr
Max
24-hr
Min
Relative
Humidity
Atmospheric
Pressure
Avg
Speed
Avg
Dir
Spot
Speed
Spot
Dir
Max
Speed
Max
Dir
  Rate Situation Start End 1 hr 3 hr 6 hr 12 hr 24 hr   Situation
Date Time °F °F °F °F °F % in Hg mph ° mph ° mph ° Y/N in/hr text Date Time Date Time in in in in in mi text
11/28/2020 12:00 AM 39.92 37.58 34.16 63.50 31.46 80.0 32.46 4.25 E 3.58 E 5.37 E No 0.000 No Precipitation 11/22/2020 12:31 AM 11/22/2020 12:35 AM 0.000 0.000 0.000 0.000 0.000 1.24 Clear
11/28/2020 12:01 AM 39.74 37.58 34.34 63.50 31.46 81.0 32.46 3.80 E 4.03 E 5.37 E No 0.000 No Precipitation 11/22/2020 12:31 AM 11/22/2020 12:35 AM 0.000 0.000 0.000 0.000 0.000 1.24 Clear
11/28/2020 12:02 AM 39.74 37.58 34.52 63.50 31.46 81.0 32.46 3.80 E 3.58 E 5.37 E No 0.000 No Precipitation 11/22/2020 12:31 AM 11/22/2020 12:35 AM 0.000 0.000 0.000 0.000 0.000 1.24 Clear
11/28/2020 12:03 AM 39.74 37.58 34.52 63.50 31.46 82.0 32.46 3.58 E 3.58 E 5.37 E No 0.000 No Precipitation 11/22/2020 12:31 AM 11/22/2020 12:35 AM 0.000 0.000 0.000 0.000 0.000 1.24 Clear
11/28/2020 12:04 AM 39.56 37.40 34.52 63.50 31.46 82.0 32.46 3.58 E 4.03 E 5.37 E No 0.000 No Precipitation 11/22/2020 12:31 AM 11/22/2020 12:35 AM 0.000 0.000 0.000 0.000 0.000 1.24 Clear
11/28/2020 12:05 AM 39.56 37.40 34.52 63.50 31.46 82.0 32.46 3.58 E 3.36 E 5.37 E No 0.000 No Precipitation 11/22/2020 12:31 AM 11/22/2020 12:35 AM 0.000 0.000 0.000 0.000 0.000 1.24 Clear
11/28/2020 12:06 AM 39.38 37.22 34.52 63.50 31.46 82.0 32.46 3.36 E 3.58 E 5.37 E No 0.000 No Precipitation 11/22/2020 12:31 AM 11/22/2020 12:35 AM 0.000 0.000 0.000 0.000 0.000 1.24 Clear
11/28/2020 12:07 AM 39.38 37.40 34.70 63.50 31.46 83.0 32.46 3.13 E 3.13 E 5.37 E No 0.000 No Precipitation 11/22/2020 12:31 AM 11/22/2020 12:35 AM 0.000 0.000 0.000 0.000 0.000 1.24 Clear
11/28/2020 12:08 AM 39.56 37.40 34.52 63.50 31.46 82.0 32.46 3.13 E 2.68 E 5.37 E No 0.000 No Precipitation 11/22/2020 12:31 AM 11/22/2020 12:35 AM 0.000 0.000 0.000 0.000 0.000 1.24 Clear
11/28/2020 12:09 AM 39.38 37.40 34.52 63.50 31.46 82.0 32.46 2.91 E 2.68 E 4.92 E No 0.000 No Precipitation 11/22/2020 12:31 AM 11/22/2020 12:35 AM 0.000 0.000 0.000 0.000 0.000 1.24 Clear
11/28/2020 12:10 AM 39.38 37.22 34.34 63.50 31.46 82.0 32.46 2.68 E 2.68 E 4.25 E No 0.000 No Precipitation 11/22/2020 12:31 AM 11/22/2020 12:35 AM 0.000 0.000 0.000 0.000 0.000 1.24 Clear
11/28/2020 12:11 AM 39.38 37.22 34.34 63.50 31.46 82.0 32.46 2.68 E 2.91 E 4.03 E No 0.000 No Precipitation 11/22/2020 12:31 AM 11/22/2020 12:35 AM 0.000 0.000 0.000 0.000 0.000 1.24 Clear
11/28/2020 12:12 AM 39.56 37.22 34.34 63.50 31.46 81.0 32.46 2.91 E 2.91 E 4.03 E No 0.000 No Precipitation 11/22/2020 12:31 AM 11/22/2020 12:35 AM 0.000 0.000 0.000 0.000 0.000 1.24 Clear
11/28/2020 12:13 AM 39.74 37.40 34.34 63.50 31.46 81.0 32.46 2.91 E 3.13 E 4.03 E No 0.000 No Precipitation 11/22/2020 12:31 AM 11/22/2020 12:35 AM 0.000 0.000 0.000 0.000 0.000 1.24 Clear
11/28/2020 12:14 AM 39.74 37.40 34.34 63.50 31.46 80.0 32.46 3.13 E 2.91 E 4.03 E No 0.000 No Precipitation 11/22/2020 12:31 AM 11/22/2020 12:35 AM 0.000 0.000 0.000 0.000 0.000 1.24 Clear
11/28/2020 12:15 AM 39.92 37.40 34.16 63.50 31.46 79.0 32.46 2.91 E 2.91 E 3.58 E No 0.000 No Precipitation 11/22/2020 12:31 AM 11/22/2020 12:35 AM 0.000 0.000 0.000 0.000 0.000 1.24 Clear
11/28/2020 12:16 AM 39.74 37.22 33.80 63.50 31.46 79.0 32.46 2.91 E 2.91 E 3.58 E No 0.000 No Precipitation 11/22/2020 12:31 AM 11/22/2020 12:35 AM 0.000 0.000 0.000 0.000 0.000 1.24 Clear
11/28/2020 12:17 AM 39.74 37.04 33.62 63.50 31.46 78.0 32.46 2.91 E 2.68 E 3.13 E No 0.000 No Precipitation 11/22/2020 12:31 AM 11/22/2020 12:35 AM 0.000 0.000 0.000 0.000 0.000 1.24 Clear
11/28/2020 12:18 AM 39.74 37.04 33.62 63.50 31.46 79.0 32.46 2.68 E 2.68 E 3.13 E No 0.000 No Precipitation 11/22/2020 12:31 AM 11/22/2020 12:35 AM 0.000 0.000 0.000 0.000 0.000 1.24 Clear
11/28/2020 12:19 AM 39.56 37.04 33.62 63.50 31.46 79.0 32.46 2.68 E 2.68 E 3.13 E No 0.000 No Precipitation 11/22/2020 12:31 AM 11/22/2020 12:35 AM 0.000 0.000 0.000 0.000 0.000 1.24 Clear
11/28/2020 12:20 AM 39.56 37.22 33.80 63.50 31.46 79.0 32.46 2.68 E 3.13 E 3.13 E No 0.000 No Precipitation 11/22/2020 12:31 AM 11/22/2020 12:35 AM 0.000 0.000 0.000 0.000 0.000 1.24 Clear
11/28/2020 12:21 AM 39.74 37.22 33.98 63.50 31.46 80.0 32.46 2.68 E 2.91 E 3.36 E No 0.000 No Precipitation 11/22/2020 12:31 AM 11/22/2020 12:35 AM 0.000 0.000 0.000 0.000 0.000 1.24 Clear
11/28/2020 12:22 AM 39.38 37.04 33.98 63.50 31.46 80.0 32.46 2.91 E 2.91 E 3.36 E No 0.000 No Precipitation 11/22/2020 12:31 AM 11/22/2020 12:35 AM 0.000 0.000 0.000 0.000 0.000 1.24 Clear
11/28/2020 12:23 AM 39.20 37.04 33.98 63.50 31.46 82.0 32.46 2.91 E 2.68 E 3.36 E No 0.000 No Precipitation 11/22/2020 12:31 AM 11/22/2020 12:35 AM 0.000 0.000 0.000 0.000 0.000 1.24 Clear
11/28/2020 12:24 AM 39.02 36.86 34.16 63.50 31.46 82.0 32.46 2.68 E 2.46 E 3.36 E No 0.000 No Precipitation 11/22/2020 12:31 AM 11/22/2020 12:35 AM 0.000 0.000 0.000 0.000 0.000 1.24 Clear
11/28/2020 12:25 AM 38.84 36.86 34.16 63.50 31.46 83.0 32.46 2.46 E 2.46 E 3.36 E No 0.000 No Precipitation 11/22/2020 12:31 AM 11/22/2020 12:35 AM 0.000 0.000 0.000 0.000 0.000 1.24 Clear
11/28/2020 12:26 AM 38.66 36.86 34.34 63.50 31.46 84.0 32.46 2.68 E 2.68 E 3.36 E No 0.000 No Precipitation 11/22/2020 12:31 AM 11/22/2020 12:35 AM 0.000 0.000 0.000 0.000 0.000 1.24 Clear
11/28/2020 12:27 AM 38.66 36.86 34.52 63.50 31.46 84.0 32.46 2.68 E 2.91 E 3.36 E No 0.000 No Precipitation 11/22/2020 12:31 AM 11/22/2020 12:35 AM 0.000 0.000 0.000 0.000 0.000 1.24 Clear
11/28/2020 12:28 AM 38.66 36.86 34.52 63.50 31.46 85.0 32.46 2.68 E 2.68 E 3.36 E No 0.000 No Precipitation 11/22/2020 12:31 AM 11/22/2020 12:35 AM 0.000 0.000 0.000 0.000 0.000 1.24 Clear
11/28/2020 12:29 AM 38.66 36.86 34.52 63.50 31.46 85.0 32.46 2.91 E 3.13 E 3.36 E No 0.000 No Precipitation 11/22/2020 12:31 AM 11/22/2020 12:35 AM 0.000 0.000 0.000 0.000 0.000 1.24 Clear
11/28/2020 12:30 AM 38.48 36.68 34.34 63.50 31.46 85.0 32.46 2.91 E 2.68 E 3.36 E No 0.000 No Precipitation 11/22/2020 12:31 AM 11/22/2020 12:35 AM 0.000 0.000 0.000 0.000 0.000 1.24 Clear
11/28/2020 12:31 AM 38.30 36.68 34.34 63.50 31.46 85.0 32.46 2.91 E 2.91 E 3.13 E No 0.000 No Precipitation 11/22/2020 12:31 AM 11/22/2020 12:35 AM 0.000 0.000 0.000 0.000 0.000 1.24 Clear
11/28/2020 12:32 AM 38.12 36.50 34.34 63.50 31.46 86.0 32.46 2.91 E 2.91 E 3.13 E No 0.000 No Precipitation 11/22/2020 12:31 AM 11/22/2020 12:35 AM 0.000 0.000 0.000 0.000 0.000 1.24 Clear
11/28/2020 12:33 AM 38.12 36.68 34.52 63.50 31.46 86.0 32.46 2.91 E 3.13 E 3.36 E No 0.000 No Precipitation 11/22/2020 12:31 AM 11/22/2020 12:35 AM 0.000 0.000 0.000 0.000 0.000 1.24 Clear
11/28/2020 12:34 AM 38.30 36.68 34.52 63.50 31.46 86.0 32.46 3.13 E 3.36 E 3.58 E No 0.000 No Precipitation 11/22/2020 12:31 AM 11/22/2020 12:35 AM 0.000 0.000 0.000 0.000 0.000 1.24 Clear
11/28/2020 12:35 AM 38.30 36.68 34.70 63.50 31.46 86.0 32.46 3.58 E 4.25 E 4.25 E No 0.000 No Precipitation 11/22/2020 12:31 AM 11/22/2020 12:35 AM 0.000 0.000 0.000 0.000 0.000 1.24 Clear
11/28/2020 12:36 AM 38.12 36.68 34.70 63.50 31.46 87.0 32.46 3.80 E 4.25 E 4.25 E No 0.000 No Precipitation 11/22/2020 12:31 AM 11/22/2020 12:35 AM 0.000 0.000 0.000 0.000 0.000 1.24 Clear
11/28/2020 12:38 AM 38.12 36.68 34.52 63.50 31.46 86.0 32.46 4.25 E 4.47 E 4.47 E No 0.000 No Precipitation 11/22/2020 12:31 AM 11/22/2020 12:35 AM 0.000 0.000 0.000 0.000 0.000 1.24 Clear
11/28/2020 12:39 AM 37.76 36.32 34.16 63.50 31.46 87.0 32.46 4.25 E 4.47 E 4.70 E No 0.000 No Precipitation 11/22/2020 12:31 AM 11/22/2020 12:35 AM 0.000 0.000 0.000 0.000 0.000 1.24 Clear
11/28/2020 12:40 AM 37.76 36.50 34.70 63.50 31.46 89.0 32.46 4.47 E 4.92 E 4.92 E No 0.000 No Precipitation 11/22/2020 12:31 AM 11/22/2020 12:35 AM 0.000 0.000 0.000 0.000 0.000 1.24 Clear
11/28/2020 12:41 AM 37.76 36.50 34.88 63.50 31.46 89.0 32.46 4.47 E 4.25 E 4.92 E No 0.000 No Precipitation 11/22/2020 12:31 AM 11/22/2020 12:35 AM 0.000 0.000 0.000 0.000 0.000 1.24 Clear
11/28/2020 12:42 AM 37.76 36.50 34.88 63.50 31.46 89.0 32.46 4.70 E 4.70 E 4.92 E No 0.000 No Precipitation 11/22/2020 12:31 AM 11/22/2020 12:35 AM 0.000 0.000 0.000 0.000 0.000 1.24 Clear
11/28/2020 12:43 AM 37.76 36.50 34.88 63.50 31.46 89.0 32.46 4.70 E 5.14 E 5.14 E No 0.000 No Precipitation 11/22/2020 12:31 AM 11/22/2020 12:35 AM 0.000 0.000 0.000 0.000 0.000 1.24 Clear
11/28/2020 12:44 AM 37.94 36.68 35.06 63.50 31.46 89.0 32.46 4.92 E 5.37 E 5.37 E No 0.000 No Precipitation 11/22/2020 12:31 AM 11/22/2020 12:35 AM 0.000 0.000 0.000 0.000 0.000 1.24 Clear
11/28/2020 12:45 AM 37.94 36.68 35.06 63.50 31.46 89.0 32.46 5.37 E 5.59 E 5.82 E No 0.000 No Precipitation 11/22/2020 12:31 AM 11/22/2020 12:35 AM 0.000 0.000 0.000 0.000 0.000 1.24 Clear
11/28/2020 12:46 AM 37.94 36.68 34.70 63.50 31.46 88.0 32.46 5.59 E 5.59 E 6.04 E No 0.000 No Precipitation 11/22/2020 12:31 AM 11/22/2020 12:35 AM 0.000 0.000 0.000 0.000 0.000 1.24 Clear
11/28/2020 12:47 AM 38.12 36.68 34.70 63.50 31.46 88.0 32.46 5.82 E 5.82 E 6.26 E No 0.000 No Precipitation 11/22/2020 12:31 AM 11/22/2020 12:35 AM 0.000 0.000 0.000 0.000 0.000 1.24 Clear
11/28/2020 12:48 AM 38.30 36.68 34.52 63.50 31.46 86.0 32.46 5.59 E 5.37 E 6.26 E No 0.000 No Precipitation 11/22/2020 12:31 AM 11/22/2020 12:35 AM 0.000 0.000 0.000 0.000 0.000 1.24 Clear
11/28/2020 12:49 AM 39.02 37.22 34.70 63.50 31.46 84.0 32.46 5.37 E 5.59 E 6.26 E No 0.000 No Precipitation 11/22/2020 12:31 AM 11/22/2020 12:35 AM 0.000 0.000 0.000 0.000 0.000 1.24 Clear
11/28/2020 12:50 AM 39.56 37.22 34.34 63.50 31.46 81.0 32.46 5.14 E 4.70 E 6.26 E No 0.000 No Precipitation 11/22/2020 12:31 AM 11/22/2020 12:35 AM 0.000 0.000 0.000 0.000 0.000 1.24 Clear
11/28/2020 12:51 AM 39.56 37.22 34.16 63.50 31.46 80.0 32.46 4.92 E 4.47 E 6.26 E No 0.000 No Precipitation 11/22/2020 12:31 AM 11/22/2020 12:35 AM 0.000 0.000 0.000 0.000 0.000 1.24 Clear
11/28/2020 12:52 AM 39.56 37.22 33.80 63.50 31.46 80.0 32.46 4.92 E 4.70 E 6.26 E No 0.000 No Precipitation 11/22/2020 12:31 AM 11/22/2020 12:35 AM 0.000 0.000 0.000 0.000 0.000 1.24 Clear
11/28/2020 12:53 AM 39.56 37.04 33.80 63.50 31.46 79.0 32.46 4.92 E 4.70 E 6.26 E No 0.000 No Precipitation 11/22/2020 12:31 AM 11/22/2020 12:35 AM 0.000 0.000 0.000 0.000 0.000 1.24 Clear
11/28/2020 12:54 AM 39.38 37.04 33.80 63.50 31.46 80.0 32.46 4.92 E 4.70 E 6.26 E No 0.000 No Precipitation 11/22/2020 12:31 AM 11/22/2020 12:35 AM 0.000 0.000 0.000 0.000 0.000 1.24 Clear
11/28/2020 12:55 AM 39.02 36.86 33.80 63.50 31.46 81.0 32.46 4.92 E 4.70 E 6.26 E No 0.000 No Precipitation 11/22/2020 12:31 AM 11/22/2020 12:35 AM 0.000 0.000 0.000 0.000 0.000 1.24 Clear
11/28/2020 12:56 AM 38.66 36.68 33.98 63.50 31.46 83.0 32.46 5.14 E 5.14 E 6.26 E No 0.000 No Precipitation 11/22/2020 12:31 AM 11/22/2020 12:35 AM 0.000 0.000 0.000 0.000 0.000 1.24 Clear
11/28/2020 12:57 AM 38.12 36.50 34.16 63.50 31.46 85.0 32.46 5.14 E 4.47 E 6.04 E No 0.000 No Precipitation 11/22/2020 12:31 AM 11/22/2020 12:35 AM 0.000 0.000 0.000 0.000 0.000 1.24 Clear
11/28/2020 12:58 AM 37.94 36.50 34.16 63.50 31.46 86.0 32.46 4.70 E 4.47 E 5.82 E No 0.000 No Precipitation 11/22/2020 12:31 AM 11/22/2020 12:35 AM 0.000 0.000 0.000 0.000 0.000 1.24 Clear
11/28/2020 12:59 AM 38.12 36.50 34.34 63.50 31.46 86.0 32.46 4.25 E 3.80 E 5.59 E No 0.000 No Precipitation 11/22/2020 12:31 AM 11/22/2020 12:35 AM 0.000 0.000 0.000 0.000 0.000 1.24 Clear
11/28/2020 01:00 AM 38.12 36.50 34.34 63.50 31.46 86.0 32.46 3.80 E 3.58 E 5.59 E No 0.000 No Precipitation 11/22/2020 12:31 AM 11/22/2020 12:35 AM 0.000 0.000 0.000 0.000 0.000 1.24 Clear
11/28/2020 01:01 AM 38.12 36.50 34.34 63.50 31.46 86.0 32.46 3.58 E 3.13 E 5.59 E No 0.000 No Precipitation 11/22/2020 12:31 AM 11/22/2020 12:35 AM 0.000 0.000 0.000 0.000 0.000 1.24 Clear
11/28/2020 01:02 AM 38.12 36.50 34.34 63.50 31.46 86.0 32.46 3.36 E 3.13 E 5.59 E No 0.000 No Precipitation 11/22/2020 12:31 AM 11/22/2020 12:35 AM 0.000 0.000 0.000 0.000 0.000 1.24 Clear
11/28/2020 01:03 AM 37.94 36.32 34.16 63.50 31.46 86.0 32.46 2.91 E 2.24 E 5.59 E No 0.000 No Precipitation 11/22/2020 12:31 AM 11/22/2020 12:35 AM 0.000 0.000 0.000 0.000 0.000 1.24 Clear
11/28/2020 01:04 AM 37.58 36.32 34.34 63.50 31.46 87.0 32.46 2.46 E 2.46 NE 5.37 E No 0.000 No Precipitation 11/22/2020 12:31 AM 11/22/2020 12:35 AM 0.000 0.000 0.000 0.000 0.000 1.24 Clear
11/28/2020 01:05 AM 37.58 36.14 34.34 63.50 31.46 88.0 32.46 2.46 E 2.46 NE 5.37 E No 0.000 No Precipitation 11/22/2020 12:31 AM 11/22/2020 12:35 AM 0.000 0.000 0.000 0.000 0.000 1.24 Clear
11/28/2020 01:06 AM 37.22 35.78 33.80 63.50 31.46 88.0 32.46 2.46 NE 2.68 NE 5.37 E No 0.000 No Precipitation 11/22/2020 12:31 AM 11/22/2020 12:35 AM 0.000 0.000 0.000 0.000 0.000 1.24 Clear
11/28/2020 01:07 AM 37.22 35.24 33.62 63.50 31.46 89.0 32.46 2.46 NE 2.24 NE 4.70 E No 0.000 No Precipitation 11/22/2020 12:31 AM 11/22/2020 12:35 AM 0.000 0.000 0.000 0.000 0.000 1.24 Clear
11/28/2020 01:08 AM 36.50 35.06 33.62 63.50 31.46 92.0 32.46 2.24 NE 1.79 NE 4.25 E No 0.000 No Precipitation 11/22/2020 12:31 AM 11/22/2020 12:35 AM 0.000 0.000 0.000 0.000 0.000 1.24 Clear
11/28/2020 01:09 AM 35.96 35.06 33.80 63.50 31.46 92.0 32.46 1.57 NE 1.57 NE 4.03 E No 0.000 No Precipitation 11/22/2020 12:31 AM 11/22/2020 12:35 AM 0.000 0.000 0.000 0.000 0.000 1.24 Clear
11/28/2020 01:10 AM 35.96 35.42 34.70 63.50 31.46 95.0 32.46 1.57 NE 1.57 NE 3.80 E No 0.000 No Precipitation 11/22/2020 12:31 AM 11/22/2020 12:35 AM 0.000 0.000 0.000 0.000 0.000 1.24 Clear
11/28/2020 01:11 AM 36.14 35.60 34.88 63.50 31.46 96.0 32.46 1.34 NE 1.34 NE 3.36 E No 0.000 No Precipitation 11/22/2020 12:31 AM 11/22/2020 12:35 AM 0.000 0.000 0.000 0.000 0.000 1.24 Clear
11/28/2020 01:12 AM 36.14 35.60 35.06 63.50 31.46 96.0 32.46 1.34 NE 1.34 NE 3.13 E No 0.000 No Precipitation 11/22/2020 12:31 AM 11/22/2020 12:35 AM 0.000 0.000 0.000 0.000 0.000 1.24 Clear
11/28/2020 01:13 AM 36.14 35.78 35.06 63.50 31.46 95.0 32.46 1.57 NE 1.79 NE 3.13 E No 0.000 No Precipitation 11/22/2020 12:31 AM 11/22/2020 12:35 AM 0.000 0.000 0.000 0.000 0.000 1.24 Clear
11/28/2020 01:14 AM 36.14 35.60 35.06 63.50 31.46 96.0 32.46 2.01 NE 2.24 NE 2.68 NE No 0.000 No Precipitation 11/22/2020 12:31 AM 11/22/2020 12:35 AM 0.000 0.000 0.000 0.000 0.000 1.24 Clear
11/28/2020 01:15 AM 35.96 35.42 34.52 63.50 31.46 94.0 32.46 2.01 NE 1.79 NE 2.68 NE No 0.000 No Precipitation 11/22/2020 12:31 AM 11/22/2020 12:35 AM 0.000 0.000 0.000 0.000 0.000 1.24 Clear
11/28/2020 01:16 AM 35.96 35.42 34.70 63.50 31.46 96.0 32.46 2.01 NE 2.01 NE 2.68 NE No 0.000 No Precipitation 11/22/2020 12:31 AM 11/22/2020 12:35 AM 0.000 0.000 0.000 0.000 0.000 1.24 Clear
11/28/2020 01:17 AM 35.96 35.60 34.88 63.50 31.46 96.0 32.46 1.79 NE 1.79 NE 2.24 NE No 0.000 No Precipitation 11/22/2020 12:31 AM 11/22/2020 12:35 AM 0.000 0.000 0.000 0.000 0.000 1.24 Clear
11/28/2020 01:18 AM 36.14 35.78 35.42 63.50 31.46 97.0 32.46 1.79 NE 2.01 NE 2.24 NE No 0.000 No Precipitation 11/22/2020 12:31 AM 11/22/2020 12:35 AM 0.000 0.000 0.000 0.000 0.000 1.24 Clear
11/28/2020 01:19 AM 36.50 36.14 35.60 63.50 31.46 96.0 32.46 2.01 NE 2.46 NE 2.46 NE No 0.000 No Precipitation 11/22/2020 12:31 AM 11/22/2020 12:35 AM 0.000 0.000 0.000 0.000 0.000 1.24 Clear
11/28/2020 01:20 AM 36.50 35.96 35.06 63.50 31.46 95.0 32.46 2.24 NE 2.46 NE 2.46 NE No 0.000 No Precipitation 11/22/2020 12:31 AM 11/22/2020 12:35 AM 0.000 0.000 0.000 0.000 0.000 1.24 Clear
11/28/2020 01:21 AM 36.32 35.78 34.88 63.50 31.46 94.0 32.46 2.46 NE 2.68 NE 2.68 NE No 0.000 No Precipitation 11/22/2020 12:31 AM 11/22/2020 12:35 AM 0.000 0.000 0.000 0.000 0.000 1.24 Clear
11/28/2020 01:22 AM 36.32 35.78 34.88 63.50 31.46 94.0 32.46 2.68 NE 2.68 NE 2.68 NE No 0.000 No Precipitation 11/22/2020 12:31 AM 11/22/2020 12:35 AM 0.000 0.000 0.000 0.000 0.000 1.24 Clear
11/28/2020 01:23 AM 36.14 35.60 34.88 63.50 31.46 95.0 32.46 2.68 NE 2.91 NE 2.91 NE No 0.000 No Precipitation 11/22/2020 12:31 AM 11/22/2020 12:35 AM 0.000 0.000 0.000 0.000 0.000 1.24 Clear
11/28/2020 01:24 AM 35.96 35.60 35.06 63.50 31.46 96.0 32.46 2.91 E 2.68 E 2.91 NE No 0.000 No Precipitation 11/22/2020 12:31 AM 11/22/2020 12:35 AM 0.000 0.000 0.000 0.000 0.000 1.24 Clear
11/28/2020 01:25 AM 36.14 35.96 35.60 63.50 31.46 98.0 32.46 2.68 E 2.46 NE 2.91 NE No 0.000 No Precipitation 11/22/2020 12:31 AM 11/22/2020 12:35 AM 0.000 0.000 0.000 0.000 0.000 1.24 Clear
11/28/2020 01:26 AM 36.32 36.14 35.96 63.50 31.46 98.0 32.46 2.68 E 2.68 NE 2.91 NE No 0.000 No Precipitation 11/22/2020 12:31 AM 11/22/2020 12:35 AM 0.000 0.000 0.000 0.000 0.000 1.24 Clear
11/28/2020 01:27 AM 36.50 36.14 35.60 63.50 31.46 97.0 32.46 2.68 E 2.46 NE 2.91 NE No 0.000 No Precipitation 11/22/2020 12:31 AM 11/22/2020 12:35 AM 0.000 0.000 0.000 0.000 0.000 1.24 Clear
11/28/2020 01:28 AM 36.50 36.14 35.60 63.50 31.46 96.0 32.46 2.68 NE 2.68 NE 2.91 NE No 0.000 No Precipitation 11/22/2020 12:31 AM 11/22/2020 12:35 AM 0.000 0.000 0.000 0.000 0.000 1.24 Clear
11/28/2020 01:29 AM 36.50 35.96 35.24 63.50 31.46 95.0 32.46 2.68 NE 2.68 NE 2.91 NE No 0.000 No Precipitation 11/22/2020 12:31 AM 11/22/2020 12:35 AM 0.000 0.000 0.000 0.000 0.000 1.24 Clear
11/28/2020 01:30 AM 36.32 35.78 35.06 63.50 31.46 95.0 32.46 2.68 NE 2.46 NE 2.91 NE No 0.000 No Precipitation 11/22/2020 12:31 AM 11/22/2020 12:35 AM 0.000 0.000 0.000 0.000 0.000 1.24 Clear
11/28/2020 01:31 AM 35.96 35.42 34.70 63.50 31.46 95.0 32.46 2.46 NE 2.46 NE 2.91 NE No 0.000 No Precipitation 11/22/2020 12:31 AM 11/22/2020 12:35 AM 0.000 0.000 0.000 0.000 0.000 1.24 Clear
11/28/2020 01:32 AM 35.96 35.60 34.88 63.50 31.46 96.0 32.46 2.68 NE 2.91 NE 2.91 NE No 0.000 No Precipitation 11/22/2020 12:31 AM 11/22/2020 12:35 AM 0.000 0.000 0.000 0.000 0.000 1.24 Clear
11/28/2020 01:33 AM 35.96 35.60 35.06 63.50 31.46 96.0 32.46 2.91 E 3.13 NE 3.13 NE No 0.000 No Precipitation 11/22/2020 12:31 AM 11/22/2020 12:35 AM 0.000 0.000 0.000 0.000 0.000 1.24 Clear
11/28/2020 01:34 AM 36.14 35.78 35.24 63.50 31.46 97.0 32.46 3.13 NE 3.13 NE 3.36 NE No 0.000 No Precipitation 11/22/2020 12:31 AM 11/22/2020 12:35 AM 0.000 0.000 0.000 0.000 0.000 1.24 Clear
11/28/2020 01:35 AM 36.32 35.96 35.42 63.50 31.46 97.0 32.46 3.13 NE 3.13 NE 3.36 NE No 0.000 No Precipitation 11/22/2020 12:31 AM 11/22/2020 12:35 AM 0.000 0.000 0.000 0.000 0.000 1.24 Clear
11/28/2020 01:36 AM 36.50 36.14 35.42 63.50 31.46 96.0 32.46 3.36 NE 3.36 NE 3.36 NE No 0.000 No Precipitation 11/22/2020 12:31 AM 11/22/2020 12:35 AM 0.000 0.000 0.000 0.000 0.000 1.24 Clear
11/28/2020 01:37 AM 36.50 35.96 35.24 63.50 31.46 95.0 32.46 3.36 NE 3.36 NE 3.36 NE No 0.000 No Precipitation 11/22/2020 12:31 AM 11/22/2020 12:35 AM 0.000 0.000 0.000 0.000 0.000 1.24 Clear
11/28/2020 01:38 AM 36.32 35.78 35.06 63.50 31.46 95.0 32.46 3.36 NE 3.58 NE 3.80 NE No 0.000 No Precipitation 11/22/2020 12:31 AM 11/22/2020 12:35 AM 0.000 0.000 0.000 0.000 0.000 1.24 Clear
11/28/2020 01:39 AM 36.32 35.96 35.24 63.50 31.46 96.0 32.46 3.58 NE 3.80 NE 3.80 NE No 0.000 No Precipitation 11/22/2020 12:31 AM 11/22/2020 12:35 AM 0.000 0.000 0.000 0.000 0.000 1.24 Clear
11/28/2020 01:40 AM 36.50 35.96 35.24 63.50 31.46 94.0 32.46 3.80 E 3.80 E 3.80 NE No 0.000 No Precipitation 11/22/2020 12:31 AM 11/22/2020 12:35 AM 0.000 0.000 0.000 0.000 0.000 1.24 Clear
11/28/2020 01:41 AM 36.68 35.96 35.06 63.50 31.46 93.0 32.46 3.80 E 3.58 E 3.80 NE No 0.000 No Precipitation 11/22/2020 12:31 AM 11/22/2020 12:35 AM 0.000 0.000 0.000 0.000 0.000 1.24 Clear
11/28/2020 01:42 AM 36.86 35.96 34.52 63.50 31.46 91.0 32.46 3.58 E 3.13 E 3.80 NE No 0.000 No Precipitation 11/22/2020 12:31 AM 11/22/2020 12:35 AM 0.000 0.000 0.000 0.000 0.000 1.24 Clear
11/28/2020 01:43 AM 36.68 35.60 33.98 63.50 31.46 89.0 32.46 3.13 E 2.91 E 3.80 NE No 0.000 No Precipitation 11/22/2020 12:31 AM 11/22/2020 12:35 AM 0.000 0.000 0.000 0.000 0.000 1.24 Clear
11/28/2020 01:44 AM 36.68 35.42 33.44 63.50 31.46 88.0 32.46 2.91 E 2.68 E 3.80 NE No 0.000 No Precipitation 11/22/2020 12:31 AM 11/22/2020 12:35 AM 0.000 0.000 0.000 0.000 0.000 1.24 Clear
11/28/2020 01:45 AM 36.50 35.06 32.72 63.50 31.46 86.0 32.46 2.91 E 3.13 E 3.80 NE No 0.000 No Precipitation 11/22/2020 12:31 AM 11/22/2020 12:35 AM 0.000 0.000 0.000 0.000 0.000 1.24 Clear
11/28/2020 01:46 AM 36.32 34.70 32.18 63.50 31.46 84.0 32.46 3.13 E 3.36 E 3.80 NE No 0.000 No Precipitation 11/22/2020 12:31 AM 11/22/2020 12:35 AM 0.000 0.000 0.000 0.000 0.000 1.24 Clear
11/28/2020 01:47 AM 36.14 34.34 31.64 63.50 31.46 84.0 32.46 3.58 E 3.58 E 3.80 NE No 0.000 No Precipitation 11/22/2020 12:31 AM 11/22/2020 12:35 AM 0.000 0.000 0.000 0.000 0.000 1.24 Clear
11/28/2020 01:48 AM 35.96 34.34 31.64 63.50 31.46 84.0 32.46 3.58 E 3.36 E 4.03 E No 0.000 No Precipitation 11/22/2020 12:31 AM 11/22/2020 12:35 AM 0.000 0.000 0.000 0.000 0.000 1.24 Clear
11/28/2020 01:49 AM 36.14 34.34 31.64 63.50 31.46 84.0 32.46 3.58 E 4.03 E 4.03 E No 0.000 No Precipitation 11/22/2020 12:31 AM 11/22/2020 12:35 AM 0.000 0.000 0.000 0.000 0.000 1.24 Clear
11/28/2020 01:50 AM 36.14 34.52 31.82 63.50 31.46 84.0 32.46 3.58 E 3.58 E 4.03 E No 0.000 No Precipitation 11/22/2020 12:31 AM 11/22/2020 12:35 AM 0.000 0.000 0.000 0.000 0.000 1.24 Clear
11/28/2020 01:51 AM 36.32 34.52 31.82 63.50 31.46 84.0 32.46 3.58 E 3.58 E 4.03 E No 0.000 No Precipitation 11/22/2020 12:31 AM 11/22/2020 12:35 AM 0.000 0.000 0.000 0.000 0.000 1.24 Clear
11/28/2020 01:52 AM 36.32 34.52 32.00 63.50 31.46 84.0 32.46 3.58 E 3.36 E 4.03 E No 0.000 No Precipitation 11/22/2020 12:31 AM 11/22/2020 12:35 AM 0.000 0.000 0.000 0.000 0.000 1.24 Clear
11/28/2020 01:53 AM 36.50 34.88 32.36 63.50 31.46 85.0 32.46 3.36 E 3.36 E 4.03 E No 0.000 No Precipitation 11/22/2020 12:31 AM 11/22/2020 12:35 AM 0.000 0.000 0.000 0.000 0.000 1.24 Clear
11/28/2020 01:54 AM 36.50 35.06 33.08 63.50 31.46 87.0 32.46 3.36 E 3.58 E 4.03 E No 0.000 No Precipitation 11/22/2020 12:31 AM 11/22/2020 12:35 AM 0.000 0.000 0.000 0.000 0.000 1.24 Clear
11/28/2020 01:55 AM 36.50 35.06 33.26 63.50 31.46 88.0 32.46 3.36 E 3.58 E 4.03 E No 0.000 No Precipitation 11/22/2020 12:31 AM 11/22/2020 12:35 AM 0.000 0.000 0.000 0.000 0.000 1.24 Clear
11/28/2020 01:56 AM 36.50 35.42 33.26 63.50 31.46 90.0 32.46 3.36 E 3.13 E 4.03 E No 0.000 No Precipitation 11/22/2020 12:31 AM 11/22/2020 12:35 AM 0.000 0.000 0.000 0.000 0.000 1.24 Clear
11/28/2020 01:57 AM 36.50 35.42 33.80 63.50 31.46 90.0 32.46 3.36 E 3.36 E 4.03 E No 0.000 No Precipitation 11/22/2020 12:31 AM 11/22/2020 12:35 AM 0.000 0.000 0.000 0.000 0.000 1.24 Clear
11/28/2020 01:58 AM 36.32 35.42 34.16 63.50 31.46 91.0 32.46 3.36 E 3.36 E 4.03 E No 0.000 No Precipitation 11/22/2020 12:31 AM 11/22/2020 12:35 AM 0.000 0.000 0.000 0.000 0.000 1.24 Clear
11/28/2020 01:59 AM 36.32 35.60 34.52 63.50 31.46 93.0 32.46 3.36 E 3.58 E 4.03 E No 0.000 No Precipitation 11/22/2020 12:31 AM 11/22/2020 12:35 AM 0.000 0.000 0.000 0.000 0.000 1.24 Clear
11/28/2020 02:00 AM 36.32 35.60 34.52 63.50 31.46 92.0 32.46 3.36 E 3.13 E 4.03 E No 0.000 No Precipitation 11/22/2020 12:31 AM 11/22/2020 12:35 AM 0.000 0.000 0.000 0.000 0.000 1.24 Clear
11/28/2020 02:01 AM 36.32 35.60 34.34 63.50 31.46 92.0 32.46 3.13 E 2.91 E 3.80 E No 0.000 No Precipitation 11/22/2020 12:31 AM 11/22/2020 12:35 AM 0.000 0.000 0.000 0.000 0.000 1.24 Clear
11/28/2020 02:02 AM 36.32 35.60 34.52 63.50 31.46 93.0 32.46 3.13 E 3.36 E 3.80 NE No 0.000 No Precipitation 11/22/2020 12:31 AM 11/22/2020 12:35 AM 0.000 0.000 0.000 0.000 0.000 1.24 Clear
11/28/2020 02:03 AM 36.14 35.60 34.52 63.50 31.46 94.0 32.46 3.13 E 3.36 E 3.80 NE No 0.000 No Precipitation 11/22/2020 12:31 AM 11/22/2020 12:35 AM 0.000 0.000 0.000 0.000 0.000 1.24 Clear
11/28/2020 02:04 AM 36.32 35.78 35.06 63.50 31.46 95.0 32.46 3.13 E 2.91 E 3.80 NE No 0.000 No Precipitation 11/22/2020 12:31 AM 11/22/2020 12:35 AM 0.000 0.000 0.000 0.000 0.000 1.24 Clear
11/28/2020 02:05 AM 36.68 35.96 35.06 63.50 31.46 94.0 32.46 2.91 E 2.68 E 3.80 NE No 0.000 No Precipitation 11/22/2020 12:31 AM 11/22/2020 12:35 AM 0.000 0.000 0.000 0.000 0.000 1.24 Clear
11/28/2020 02:06 AM 36.68 35.78 34.70 63.50 31.46 93.0 32.46 2.91 E 3.13 E 3.80 NE No 0.000 No Precipitation 11/22/2020 12:31 AM 11/22/2020 12:35 AM 0.000 0.000 0.000 0.000 0.000 1.24 Clear
11/28/2020 02:07 AM 36.50 35.60 34.16 63.50 31.46 91.0 32.46 2.91 E 3.13 E 3.80 NE No 0.000 No Precipitation 11/22/2020 12:31 AM 11/22/2020 12:35 AM 0.000 0.000 0.000 0.000 0.000 1.24 Clear
11/28/2020 02:08 AM 36.14 35.24 33.80 63.50 31.46 90.0 32.46 2.91 E 3.13 E 3.80 NE No 0.000 No Precipitation 11/22/2020 12:31 AM 11/22/2020 12:35 AM 0.000 0.000 0.000 0.000 0.000 1.24 Clear
11/28/2020 02:09 AM 35.96 34.88 33.44 63.50 31.46 90.0 32.46 2.91 E 2.46 E 3.58 E No 0.000 No Precipitation 11/22/2020 12:31 AM 11/22/2020 12:35 AM 0.000 0.000 0.000 0.000 0.000 1.24 Clear
11/28/2020 02:10 AM 35.78 34.70 33.26 63.50 31.46 90.0 32.46 2.68 E 2.68 E 3.58 E No 0.000 No Precipitation 11/22/2020 12:31 AM 11/22/2020 12:35 AM 0.000 0.000 0.000 0.000 0.000 1.24 Clear
11/28/2020 02:11 AM 35.60 34.52 33.08 63.50 31.46 91.0 32.46 2.68 E 2.68 SE 3.58 E No 0.000 No Precipitation 11/22/2020 12:31 AM 11/22/2020 12:35 AM 0.000 0.000 0.000 0.000 0.000 1.24 Clear
11/28/2020 02:12 AM 35.60 34.70 33.44 63.50 31.46 92.0 32.46 2.46 E 2.68 E 3.36 E No 0.000 No Precipitation 11/22/2020 12:31 AM 11/22/2020 12:35 AM 0.000 0.000 0.000 0.000 0.000 1.24 Clear
11/28/2020 02:13 AM 35.78 35.06 33.98 63.50 31.46 93.0 32.46 2.46 E 2.46 E 3.36 E No 0.000 No Precipitation 11/22/2020 12:31 AM 11/22/2020 12:35 AM 0.000 0.000 0.000 0.000 0.000 1.24 Clear
11/28/2020 02:14 AM 36.14 35.42 34.34 63.50 31.46 93.0 32.46 2.46 E 2.46 E 3.36 E No 0.000 No Precipitation 11/22/2020 12:31 AM 11/22/2020 12:35 AM 0.000 0.000 0.000 0.000 0.000 1.24 Clear
11/28/2020 02:15 AM 36.14 35.42 34.34 63.50 31.46 93.0 32.46 2.46 E 2.46 E 3.36 E No 0.000 No Precipitation 11/22/2020 12:31 AM 11/22/2020 12:35 AM 0.000 0.000 0.000 0.000 0.000 1.24 Clear
11/28/2020 02:16 AM 36.14 35.42 34.52 63.50 31.46 93.0 32.46 2.46 E 2.46 E 3.36 E No 0.000 No Precipitation 11/22/2020 12:31 AM 11/22/2020 12:35 AM 0.000 0.000 0.000 0.000 0.000 1.24 Clear
11/28/2020 02:17 AM 35.96 35.42 34.70 63.50 31.46 95.0 32.46 2.46 E 2.24 E 3.36 E No 0.000 No Precipitation 11/22/2020 12:31 AM 11/22/2020 12:35 AM 0.000 0.000 0.000 0.000 0.000 1.24 Clear
11/28/2020 02:18 AM 35.96 35.42 34.70 63.50 31.46 95.0 32.46 2.24 E 2.01 E 3.13 E No 0.000 No Precipitation 11/22/2020 12:31 AM 11/22/2020 12:35 AM 0.000 0.000 0.000 0.000 0.000 1.24 Clear
11/28/2020 02:19 AM 35.78 35.24 34.52 63.50 31.46 95.0 32.46 2.01 E 1.79 E 3.13 E No 0.000 No Precipitation 11/22/2020 12:31 AM 11/22/2020 12:35 AM 0.000 0.000 0.000 0.000 0.000 1.24 Clear
11/28/2020 02:20 AM 35.60 35.06 34.34 63.50 31.46 95.0 32.46 1.79 E 1.57 E 2.91 SE No 0.000 No Precipitation 11/22/2020 12:31 AM 11/22/2020 12:35 AM 0.000 0.000 0.000 0.000 0.000 1.24 Clear
11/28/2020 02:22 AM 35.06 34.52 33.80 63.50 31.46 95.0 32.46 1.57 E 1.57 SE 2.68 E No 0.000 No Precipitation 11/22/2020 12:31 AM 11/22/2020 12:35 AM 0.000 0.000 0.000 0.000 0.000 1.24 Clear
11/28/2020 02:23 AM 34.70 34.34 33.80 63.50 31.46 96.0 32.46 1.57 SE 1.79 SE 2.68 E No 0.000 No Precipitation 11/22/2020 12:31 AM 11/22/2020 12:35 AM 0.000 0.000 0.000 0.000 0.000 1.24 Clear
11/28/2020 02:25 AM 34.70 34.70 34.52 63.50 31.46 99.0 32.46 1.57 SE 1.57 SE 2.46 E No 0.000 No Precipitation 11/22/2020 12:31 AM 11/22/2020 12:35 AM 0.000 0.000 0.000 0.000 0.000 1.24 Clear
11/28/2020 02:26 AM 34.70 34.70 34.70 63.50 31.46 x 32.46 1.34 SE 1.12 SE 2.46 E No 0.000 No Precipitation 11/22/2020 12:31 AM 11/22/2020 12:35 AM 0.000 0.000 0.000 0.000 0.000 1.24 Clear
11/28/2020 02:27 AM 34.88 34.70 34.52 63.50 31.46 99.0 32.46 1.34 SE 1.12 SE 2.24 E No 0.000 No Precipitation 11/22/2020 12:31 AM 11/22/2020 12:35 AM 0.000 0.000 0.000 0.000 0.000 1.24 Clear
11/28/2020 02:28 AM 34.88 34.34 33.62 63.50 31.46 95.0 32.46 1.12 SE 1.12 S 2.01 E No 0.000 No Precipitation 11/22/2020 12:31 AM 11/22/2020 12:35 AM 0.000 0.000 0.000 0.000 0.000 1.24 Clear
11/28/2020 02:29 AM 35.06 34.34 33.26 63.50 31.46 93.0 32.46 1.12 S 1.12 S 1.79 SE No 0.000 No Precipitation 11/22/2020 12:31 AM 11/22/2020 12:35 AM 0.000 0.000 0.000 0.000 0.000 1.24 Clear
11/28/2020 02:30 AM 35.24 34.16 32.72 63.50 31.46 90.0 32.46 1.12 S 1.12 S 1.79 SE No 0.000 No Precipitation 11/22/2020 12:31 AM 11/22/2020 12:35 AM 0.000 0.000 0.000 0.000 0.000 1.24 Clear
11/28/2020 02:31 AM 35.42 34.34 32.72 63.50 31.46 90.0 32.46 1.12 S 1.12 S 1.79 SE No 0.000 No Precipitation 11/22/2020 12:31 AM 11/22/2020 12:35 AM 0.000 0.000 0.000 0.000 0.000 1.24 Clear
11/28/2020 02:32 AM 35.42 34.52 33.08 63.50 31.46 90.0 32.46 1.12 S 1.34 S 1.79 SE No 0.000 No Precipitation 11/22/2020 12:31 AM 11/22/2020 12:35 AM 0.000 0.000 0.000 0.000 0.000 1.24 Clear
11/28/2020 02:33 AM 35.60 34.70 33.44 63.50 31.46 92.0 32.46 1.34 S 1.57 S 1.79 SE No 0.000 No Precipitation 11/22/2020 12:31 AM 11/22/2020 12:35 AM 0.000 0.000 0.000 0.000 0.000 1.24 Clear
11/28/2020 02:34 AM 35.60 34.88 33.80 63.50 31.46 93.0 32.46 1.57 SE 1.79 SE 2.01 SE No 0.000 No Precipitation 11/22/2020 12:31 AM 11/22/2020 12:35 AM 0.000 0.000 0.000 0.000 0.000 1.24 Clear
11/28/2020 02:35 AM 35.60 35.06 33.98 63.50 31.46 93.0 32.46 1.79 SE 1.79 SE 2.24 SE No 0.000 No Precipitation 11/22/2020 12:31 AM 11/22/2020 12:35 AM 0.000 0.000 0.000 0.000 0.000 1.24 Clear
11/28/2020 02:36 AM 35.60 35.06 34.16 63.50 31.46 94.0 32.46 1.79 SE 1.57 SE 2.24 SE No 0.000 No Precipitation 11/22/2020 12:31 AM 11/22/2020 12:35 AM 0.000 0.000 0.000 0.000 0.000 1.24 Clear
11/28/2020 02:37 AM 35.60 35.06 34.16 63.50 31.46 95.0 32.46 1.57 SE 1.57 SE 2.24 SE No 0.000 No Precipitation 11/22/2020 12:31 AM 11/22/2020 12:35 AM 0.000 0.000 0.000 0.000 0.000 1.24 Clear
11/28/2020 02:38 AM 35.42 35.06 34.16 63.50 31.46 95.0 32.46 1.57 SE 1.57 SE 2.24 SE No 0.000 No Precipitation 11/22/2020 12:31 AM 11/22/2020 12:35 AM 0.000 0.000 0.000 0.000 0.000 1.24 Clear
11/28/2020 02:39 AM 35.42 34.88 34.34 63.50 31.46 96.0 32.46 1.57 SE 1.79 SE 2.24 SE No 0.000 No Precipitation 11/22/2020 12:31 AM 11/22/2020 12:35 AM 0.000 0.000 0.000 0.000 0.000 1.24 Clear
11/28/2020 02:40 AM 35.24 34.88 34.34 63.50 31.46 96.0 32.46 1.57 SE 1.79 S 2.24 SE No 0.000 No Precipitation 11/22/2020 12:31 AM 11/22/2020 12:35 AM 0.000 0.000 0.000 0.000 0.000 1.24 Clear
11/28/2020 02:41 AM 35.06 34.70 34.34 63.50 31.46 97.0 32.46 1.57 SE 1.57 S 2.24 SE No 0.000 No Precipitation 11/22/2020 12:31 AM 11/22/2020 12:35 AM 0.000 0.000 0.000 0.000 0.000 1.24 Clear
11/28/2020 02:42 AM 35.24 35.06 34.88 63.50 31.46 98.0 32.46 1.57 S 1.57 S 2.24 SE No 0.000 No Precipitation 11/22/2020 12:31 AM 11/22/2020 12:35 AM 0.000 0.000 0.000 0.000 0.000 1.24 Clear
11/28/2020 02:43 AM 35.60 35.24 34.88 63.50 31.46 97.0 32.46 1.34 S 1.12 S 2.24 SE No 0.000 No Precipitation 11/22/2020 12:31 AM 11/22/2020 12:35 AM 0.000 0.000 0.000 0.000 0.000 1.24 Clear
11/28/2020 02:44 AM 35.60 35.24 34.88 63.50 31.46 97.0 32.46 1.12 S 1.34 SE 2.24 SE No 0.000 No Precipitation 11/22/2020 12:31 AM 11/22/2020 12:35 AM 0.000 0.000 0.000 0.000 0.000 1.24 Clear
11/28/2020 02:45 AM 35.60 35.42 34.70 63.50 31.46 96.0 32.46 1.12 S 1.12 S 1.79 SE No 0.000 No Precipitation 11/22/2020 12:31 AM 11/22/2020 12:35 AM 0.000 0.000 0.000 0.000 0.000 1.24 Clear
11/28/2020 02:46 AM 35.60 35.42 34.88 63.50 31.46 96.0 32.46 1.12 S 1.12 SE 1.79 SE No 0.000 No Precipitation 11/22/2020 12:31 AM 11/22/2020 12:35 AM 0.000 0.000 0.000 0.000 0.000 1.24 Clear
11/28/2020 02:47 AM 35.60 35.24 34.52 63.50 31.46 96.0 32.46 1.12 S 0.89 S 1.79 SE No 0.000 No Precipitation 11/22/2020 12:31 AM 11/22/2020 12:35 AM 0.000 0.000 0.000 0.000 0.000 1.24 Clear
11/28/2020 02:48 AM 35.42 35.06 34.34 63.50 31.46 95.0 32.46 0.89 S 0.89 S 1.79 SE No 0.000 No Precipitation 11/22/2020 12:31 AM 11/22/2020 12:35 AM 0.000 0.000 0.000 0.000 0.000 1.24 Clear
11/28/2020 02:49 AM 35.42 35.06 34.34 63.50 31.46 96.0 32.46 0.89 S 0.89 SE 1.79 SE No 0.000 No Precipitation 11/22/2020 12:31 AM 11/22/2020 12:35 AM 0.000 0.000 0.000 0.000 0.000 1.24 Clear
11/28/2020 02:50 AM 35.24 34.88 34.34 63.50 31.46 96.0 32.46 0.89 SE 1.12 SE 1.79 SE No 0.000 No Precipitation 11/22/2020 12:31 AM 11/22/2020 12:35 AM 0.000 0.000 0.000 0.000 0.000 1.24 Clear
11/28/2020 02:51 AM 35.24 34.88 34.34 63.50 31.46 97.0 32.46 1.12 SE 1.12 SE 1.57 S No 0.000 No Precipitation 11/22/2020 12:31 AM 11/22/2020 12:35 AM 0.000 0.000 0.000 0.000 0.000 1.24 Clear
11/28/2020 02:52 AM 35.06 34.70 34.34 63.50 31.46 97.0 32.46 1.12 SE 0.89 SE 1.57 S No 0.000 No Precipitation 11/22/2020 12:31 AM 11/22/2020 12:35 AM 0.000 0.000 0.000 0.000 0.000 1.24 Clear
11/28/2020 02:53 AM 34.88 34.70 34.52 63.50 31.46 98.0 32.46 0.89 SE 0.67 SE 1.57 S No 0.000 No Precipitation 11/22/2020 12:31 AM 11/22/2020 12:35 AM 0.000 0.000 0.000 0.000 0.000 1.24 Clear
11/28/2020 02:54 AM 34.88 34.88 34.70 63.50 31.46 99.0 32.46 0.67 SE 0.89 SE 1.57 S No 0.000 No Precipitation 11/22/2020 12:31 AM 11/22/2020 12:35 AM 0.000 0.000 0.000 0.000 0.000 1.24 Clear
11/28/2020 02:55 AM 34.88 35.06 35.06 63.50 31.46 x 32.46 0.67 SE 0.67 SE 1.12 SE No 0.000 No Precipitation 11/22/2020 12:31 AM 11/22/2020 12:35 AM 0.000 0.000 0.000 0.000 0.000 1.24 Clear
11/28/2020 02:56 AM 35.06 35.24 35.24 63.50 31.46 x 32.46 0.67 SE 1.12 E 1.12 SE No 0.000 No Precipitation 11/22/2020 12:31 AM 11/22/2020 12:35 AM 0.000 0.000 0.000 0.000 0.000 1.24 Clear
11/28/2020 02:57 AM 35.06 35.06 35.06 63.50 31.46 x 32.46 0.89 E 0.89 E 1.12 E No 0.000 No Precipitation 11/22/2020 12:31 AM 11/22/2020 12:35 AM 0.000 0.000 0.000 0.000 0.000 1.24 Clear
11/28/2020 02:58 AM 35.06 35.06 35.06 63.50 31.46 x 32.46 0.89 E 1.34 E 1.34 E No 0.000 No Precipitation 11/22/2020 12:31 AM 11/22/2020 12:35 AM 0.000 0.000 0.000 0.000 0.000 1.24 Clear
11/28/2020 02:59 AM 35.06 35.06 35.06 63.50 31.46 x 32.46 0.89 E 0.67 E 1.34 E No 0.000 No Precipitation 11/22/2020 12:31 AM 11/22/2020 12:35 AM 0.000 0.000 0.000 0.000 0.000 1.24 Clear
11/28/2020 03:00 AM 35.06 35.24 35.24 63.50 31.46 x 32.46 0.89 E 1.34 E 1.34 E No 0.000 No Precipitation 11/22/2020 12:31 AM 11/22/2020 12:35 AM 0.000 0.000 0.000 0.000 0.000 1.24 Clear
11/28/2020 03:01 AM 35.24 35.42 35.78 63.50 31.46 x 32.46 0.89 E 1.12 E 1.34 E No 0.000 No Precipitation 11/22/2020 12:31 AM 11/22/2020 12:35 AM 0.000 0.000 0.000 0.000 0.000 1.24 Clear
11/28/2020 03:02 AM 35.42 35.42 35.42 63.50 31.46 x 32.46 1.12 E 0.89 SE 1.34 E No 0.000 No Precipitation 11/22/2020 12:31 AM 11/22/2020 12:35 AM 0.000 0.000 0.000 0.000 0.000 1.24 Clear
11/28/2020 03:03 AM 35.42 35.42 35.42 63.50 31.46 x 32.46 1.12 E 1.12 SE 1.34 E No 0.000 No Precipitation 11/22/2020 12:31 AM 11/22/2020 12:35 AM 0.000 0.000 0.000 0.000 0.000 1.24 Clear
11/28/2020 03:04 AM 35.24 35.24 35.24 63.50 31.46 99.0 32.46 1.12 SE 1.12 SE 1.34 E No 0.000 No Precipitation 11/22/2020 12:31 AM 11/22/2020 12:35 AM 0.000 0.000 0.000 0.000 0.000 1.24 Clear
11/28/2020 03:05 AM 35.24 35.24 35.06 63.50 31.46 99.0 32.46 1.12 SE 1.12 SE 1.34 E No 0.000 No Precipitation 11/22/2020 12:31 AM 11/22/2020 12:35 AM 0.000 0.000 0.000 0.000 0.000 1.24 Clear
11/28/2020 03:06 AM 35.24 35.06 34.88 63.50 31.46 99.0 32.46 1.12 SE 0.89 E 1.34 E No 0.000 No Precipitation 11/22/2020 12:31 AM 11/22/2020 12:35 AM 0.000 0.000 0.000 0.000 0.000 1.24 Clear
11/28/2020 03:07 AM 35.24 35.24 35.06 63.50 31.46 99.0 32.46 0.89 SE 0.45 SE 1.34 E No 0.000 No Precipitation 11/22/2020 12:31 AM 11/22/2020 12:35 AM 0.000 0.000 0.000 0.000 0.000 1.24 Clear
11/28/2020 03:08 AM 35.42 35.24 35.06 63.50 31.46 98.0 32.46 0.89 SE 1.12 SE 1.34 E No 0.000 No Precipitation 11/22/2020 12:31 AM 11/22/2020 12:35 AM 0.000 0.000 0.000 0.000 0.000 1.24 Clear
11/28/2020 03:09 AM 35.24 35.06 34.70 63.50 31.46 97.0 32.46 1.12 SE 1.34 SE 1.34 E No 0.000 No Precipitation 11/22/2020 12:31 AM 11/22/2020 12:35 AM 0.000 0.000 0.000 0.000 0.000 1.24 Clear
11/28/2020 03:10 AM 35.24 34.88 34.16 63.50 31.46 96.0 32.46 1.12 SE 1.34 S 1.34 S No 0.000 No Precipitation 11/22/2020 12:31 AM 11/22/2020 12:35 AM 0.000 0.000 0.000 0.000 0.000 1.24 Clear
11/28/2020 03:11 AM 34.88 34.34 33.62 63.50 31.46 95.0 32.46 1.34 S 1.34 S 1.34 S No 0.000 No Precipitation 11/22/2020 12:31 AM 11/22/2020 12:35 AM 0.000 0.000 0.000 0.000 0.000 1.24 Clear
11/28/2020 03:12 AM 34.70 33.98 32.90 63.50 31.46 93.0 32.46 1.34 S 1.57 S 1.57 S No 0.000 No Precipitation 11/22/2020 12:31 AM 11/22/2020 12:35 AM 0.000 0.000 0.000 0.000 0.000 1.24 Clear
11/28/2020 03:13 AM 34.52 33.80 32.90 63.50 31.46 94.0 32.46 1.57 S 1.57 S 1.79 S No 0.000 No Precipitation 11/22/2020 12:31 AM 11/22/2020 12:35 AM 0.000 0.000 0.000 0.000 0.000 1.24 Clear
11/28/2020 03:14 AM 34.34 33.80 33.08 63.50 31.46 95.0 32.46 1.57 S 1.57 S 1.79 S No 0.000 No Precipitation 11/22/2020 12:31 AM 11/22/2020 12:35 AM 0.000 0.000 0.000 0.000 0.000 1.24 Clear
11/28/2020 03:16 AM 33.98 33.62 32.90 63.50 31.46 95.0 32.46 1.57 S 1.57 S 1.79 S No 0.000 No Precipitation 11/22/2020 12:31 AM 11/22/2020 12:35 AM 0.000 0.000 0.000 0.000 0.000 1.24 Clear
11/28/2020 03:17 AM 33.80 33.44 32.90 63.50 31.46 96.0 32.46 1.57 S 1.34 S 1.79 S No 0.000 No Precipitation 11/22/2020 12:31 AM 11/22/2020 12:35 AM 0.000 0.000 0.000 0.000 0.000 1.24 Clear
11/28/2020 03:18 AM 33.80 33.62 33.26 63.50 31.46 98.0 32.46 1.57 S 1.57 S 1.79 S No 0.000 No Precipitation 11/22/2020 12:31 AM 11/22/2020 12:35 AM 0.000 0.000 0.000 0.000 0.000 1.24 Clear
11/28/2020 03:19 AM 33.98 33.98 33.80 63.50 31.46 99.0 32.46 1.57 S 1.79 S 1.79 S No 0.000 No Precipitation 11/22/2020 12:31 AM 11/22/2020 12:35 AM 0.000 0.000 0.000 0.000 0.000 1.24 Clear
11/28/2020 03:20 AM 33.98 34.16 34.16 63.50 31.46 x 32.46 1.79 S 1.79 S 1.79 S No 0.000 No Precipitation 11/22/2020 12:31 AM 11/22/2020 12:35 AM 0.000 0.000 0.000 0.000 0.000 1.24 Clear
11/28/2020 03:21 AM 33.80 33.80 33.62 63.50 31.46 99.0 32.46 1.79 S 1.34 S 1.79 S No 0.000 No Precipitation 11/22/2020 12:31 AM 11/22/2020 12:35 AM 0.000 0.000 0.000 0.000 0.000 1.24 Clear
11/28/2020 03:22 AM 33.80 33.62 33.44 63.50 31.46 98.0 32.46 1.34 S 0.89 S 1.79 S No 0.000 No Precipitation 11/22/2020 12:31 AM 11/22/2020 12:35 AM 0.000 0.000 0.000 0.000 0.000 1.24 Clear
11/28/2020 03:23 AM 34.16 34.16 34.16 63.50 31.46 99.0 32.46 1.12 S 0.67 SW 1.79 S No 0.000 No Precipitation 11/22/2020 12:31 AM 11/22/2020 12:35 AM 0.000 0.000 0.000 0.000 0.000 1.24 Clear
11/28/2020 03:24 AM 34.52 34.70 34.52 63.50 31.46 x 32.46 1.12 S 0.89 S 1.79 S No 0.000 No Precipitation 11/22/2020 12:31 AM 11/22/2020 12:35 AM 0.000 0.000 0.000 0.000 0.000 1.24 Clear
11/28/2020 03:25 AM 34.88 34.88 35.06 63.50 31.46 x 32.46 0.89 S 1.12 S 1.79 S No 0.000 No Precipitation 11/22/2020 12:31 AM 11/22/2020 12:35 AM 0.000 0.000 0.000 0.000 0.000 1.24 Clear
11/28/2020 03:26 AM 34.88 34.88 35.06 63.50 31.46 x 32.46 1.12 S 1.34 S 1.79 S No 0.000 No Precipitation 11/22/2020 12:31 AM 11/22/2020 12:35 AM 0.000 0.000 0.000 0.000 0.000 1.24 Clear
11/28/2020 03:27 AM 34.70 34.70 34.70 63.50 31.46 x 32.46 1.34 S 1.12 S 1.79 S No 0.000 No Precipitation 11/22/2020 12:31 AM 11/22/2020 12:35 AM 0.000 0.000 0.000 0.000 0.000 1.24 Clear
11/28/2020 03:28 AM 34.52 34.52 34.52 63.50 31.46 x 32.46 1.12 S 1.34 SE 1.79 S No 0.000 No Precipitation 11/22/2020 12:31 AM 11/22/2020 12:35 AM 0.000 0.000 0.000 0.000 0.000 1.24 Clear
11/28/2020 03:29 AM 34.52 34.70 34.88 63.50 31.46 x 32.46 1.12 SE 1.34 SE 1.79 S No 0.000 No Precipitation 11/22/2020 12:31 AM 11/22/2020 12:35 AM 0.000 0.000 0.000 0.000 0.000 1.24 Clear
11/28/2020 03:30 AM 34.70 34.88 35.24 63.50 31.46 x 32.46 1.34 SE 1.34 SE 1.79 S No 0.000 No Precipitation 11/22/2020 12:31 AM 11/22/2020 12:35 AM 0.000 0.000 0.000 0.000 0.000 1.24 Clear
11/28/2020 03:31 AM 34.70 35.06 35.42 63.50 31.46 x 32.46 1.12 SE 1.12 SE 1.57 SW No 0.000 No Precipitation 11/22/2020 12:31 AM 11/22/2020 12:35 AM 0.000 0.000 0.000 0.000 0.000 1.24 Clear
11/28/2020 03:32 AM 35.06 35.42 35.78 63.50 31.46 x 32.46 1.12 SE 0.89 SE 1.57 SW No 0.000 No Precipitation 11/22/2020 12:31 AM 11/22/2020 12:35 AM 0.000 0.000 0.000 0.000 0.000 1.24 Clear
11/28/2020 03:33 AM 34.88 35.24 35.42 63.50 31.46 x 32.46 1.12 SE 0.89 SE 1.34 S No 0.000 No Precipitation 11/22/2020 12:31 AM 11/22/2020 12:35 AM 0.000 0.000 0.000 0.000 0.000 1.24 Clear
11/28/2020 03:34 AM 34.88 34.88 35.42 63.50 31.46 x 32.46 1.12 SE 1.34 SE 1.34 SE No 0.000 No Precipitation 11/22/2020 12:31 AM 11/22/2020 12:35 AM 0.000 0.000 0.000 0.000 0.000 1.24 Clear
11/28/2020 03:35 AM 34.88 35.42 35.06 63.50 31.46 x 32.46 1.12 SE 1.34 SE 1.34 SE No 0.000 No Precipitation 11/22/2020 12:31 AM 11/22/2020 12:35 AM 0.000 0.000 0.000 0.000 0.000 1.24 Clear
11/28/2020 03:36 AM 35.06 35.42 35.78 63.50 31.46 x 32.46 1.34 SE 1.34 SE 1.34 SE No 0.000 No Precipitation 11/22/2020 12:31 AM 11/22/2020 12:35 AM 0.000 0.000 0.000 0.000 0.000 1.24 Clear
11/28/2020 03:37 AM 35.24 35.42 35.60 63.50 31.46 x 32.46 1.34 SE 1.12 E 1.34 E No 0.000 No Precipitation 11/22/2020 12:31 AM 11/22/2020 12:35 AM 0.000 0.000 0.000 0.000 0.000 1.24 Clear
11/28/2020 03:38 AM 35.24 35.24 35.24 63.50 31.46 x 32.46 1.12 E 1.12 E 1.34 E No 0.000 No Precipitation 11/22/2020 12:31 AM 11/22/2020 12:35 AM 0.000 0.000 0.000 0.000 0.000 1.24 Clear
11/28/2020 03:39 AM 35.24 35.42 35.60 63.50 31.46 x 32.46 1.12 E 1.57 E 1.57 E No 0.000 No Precipitation 11/22/2020 12:31 AM 11/22/2020 12:35 AM 0.000 0.000 0.000 0.000 0.000 1.24 Clear
11/28/2020 03:40 AM 35.42 35.42 35.42 63.50 31.46 x 32.46 1.34 E 1.12 E 1.79 E No 0.000 No Precipitation 11/22/2020 12:31 AM 11/22/2020 12:35 AM 0.000 0.000 0.000 0.000 0.000 1.24 Clear
11/28/2020 03:41 AM 35.42 35.24 35.06 63.50 31.46 99.0 32.46 1.57 E 1.57 E 1.79 E No 0.000 No Precipitation 11/22/2020 12:31 AM 11/22/2020 12:35 AM 0.000 0.000 0.000 0.000 0.000 1.24 Clear
11/28/2020 03:42 AM 35.42 35.24 35.06 63.50 31.46 99.0 32.46 1.57 E 1.79 E 1.79 E No 0.000 No Precipitation 11/22/2020 12:31 AM 11/22/2020 12:35 AM 0.000 0.000 0.000 0.000 0.000 1.24 Clear
11/28/2020 03:43 AM 35.24 35.06 34.88 63.50 31.46 98.0 32.46 1.57 E 1.34 E 2.01 E No 0.000 No Precipitation 11/22/2020 12:31 AM 11/22/2020 12:35 AM 0.000 0.000 0.000 0.000 0.000 1.24 Clear
11/28/2020 03:44 AM 35.06 34.88 34.52 63.50 31.46 98.0 32.46 1.57 E 1.79 E 2.01 E No 0.000 No Precipitation 11/22/2020 12:31 AM 11/22/2020 12:35 AM 0.000 0.000 0.000 0.000 0.000 1.24 Clear
11/28/2020 03:45 AM 34.88 34.70 34.52 63.50 31.46 98.0 32.46 1.79 E 2.46 E 2.46 E No 0.000 No Precipitation 11/22/2020 12:31 AM 11/22/2020 12:35 AM 0.000 0.000 0.000 0.000 0.000 1.24 Clear
11/28/2020 03:46 AM 34.88 34.88 34.52 63.50 31.46 99.0 32.46 2.24 E 2.46 E 2.68 E No 0.000 No Precipitation 11/22/2020 12:31 AM 11/22/2020 12:35 AM 0.000 0.000 0.000 0.000 0.000 1.24 Clear
11/28/2020 03:47 AM 34.88 34.88 34.70 63.50 31.46 99.0 32.46 2.68 E 2.91 E 2.91 E No 0.000 No Precipitation 11/22/2020 12:31 AM 11/22/2020 12:35 AM 0.000 0.000 0.000 0.000 0.000 1.24 Clear
11/28/2020 03:48 AM 34.88 34.88 34.88 63.50 31.46 x 32.46 2.68 E 2.68 E 2.91 E No 0.000 No Precipitation 11/22/2020 12:31 AM 11/22/2020 12:35 AM 0.000 0.000 0.000 0.000 0.000 1.24 Clear
11/28/2020 03:49 AM 34.88 34.88 34.88 63.50 31.46 x 32.46 2.68 E 2.68 E 2.91 E No 0.000 No Precipitation 11/22/2020 12:31 AM 11/22/2020 12:35 AM 0.000 0.000 0.000 0.000 0.000 1.24 Clear
11/28/2020 03:50 AM 34.88 34.88 34.88 63.50 31.46 x 32.46 2.46 E 2.46 E 2.91 E No 0.000 No Precipitation 11/22/2020 12:31 AM 11/22/2020 12:35 AM 0.000 0.000 0.000 0.000 0.000 1.24 Clear
11/28/2020 03:51 AM 34.70 34.88 34.88 63.50 31.46 x 32.46 2.46 E 2.24 E 2.91 E No 0.000 No Precipitation 11/22/2020 12:31 AM 11/22/2020 12:35 AM 0.000 0.000 0.000 0.000 0.000 1.24 Clear
11/28/2020 03:52 AM 34.52 34.70 34.52 63.50 31.46 x 32.46 2.24 E 2.24 E 2.91 E No 0.000 No Precipitation 11/22/2020 12:31 AM 11/22/2020 12:35 AM 0.000 0.000 0.000 0.000 0.000 1.24 Clear
11/28/2020 03:53 AM 34.34 34.34 34.16 63.50 31.46 99.0 32.46 2.46 E 2.46 E 2.91 E No 0.000 No Precipitation 11/22/2020 12:31 AM 11/22/2020 12:35 AM 0.000 0.000 0.000 0.000 0.000 1.24 Clear
11/28/2020 03:54 AM 34.34 34.34 34.52 63.50 31.46 x 32.46 2.46 E 2.46 E 2.91 E No 0.000 No Precipitation 11/22/2020 12:31 AM 11/22/2020 12:35 AM 0.000 0.000 0.000 0.000 0.000 1.24 Clear
11/28/2020 03:55 AM 34.52 34.70 35.06 63.50 31.46 x 32.46 2.68 E 2.91 E 2.91 E No 0.000 No Precipitation 11/22/2020 12:31 AM 11/22/2020 12:35 AM 0.000 0.000 0.000 0.000 0.000 1.24 Clear
11/28/2020 03:56 AM 34.70 35.06 35.60 63.50 31.46 x 32.46 2.68 E 2.91 E 2.91 E No 0.000 No Precipitation 11/22/2020 12:31 AM 11/22/2020 12:35 AM 0.000 0.000 0.000 0.000 0.000 1.24 Clear
11/28/2020 03:57 AM 34.52 34.70 34.88 63.50 31.46 x 32.46 2.91 E 2.91 E 3.13 E No 0.000 No Precipitation 11/22/2020 12:31 AM 11/22/2020 12:35 AM 0.000 0.000 0.000 0.000 0.000 1.24 Clear
11/28/2020 03:58 AM 34.34 34.52 34.70 63.50 31.46 x 32.46 2.91 E 2.68 E 3.13 E No 0.000 No Precipitation 11/22/2020 12:31 AM 11/22/2020 12:35 AM 0.000 0.000 0.000 0.000 0.000 1.24 Clear
11/28/2020 03:59 AM 34.34 34.52 34.70 63.50 31.46 x 32.46 2.68 E 2.91 E 3.13 E No 0.000 No Precipitation 11/22/2020 12:31 AM 11/22/2020 12:35 AM 0.000 0.000 0.000 0.000 0.000 1.24 Clear
11/28/2020 04:00 AM 34.52 35.06 35.42 63.50 31.46 x 32.46 2.91 E 3.36 E 3.36 E No 0.000 No Precipitation 11/22/2020 12:31 AM 11/22/2020 12:35 AM 0.000 0.000 0.000 0.000 0.000 1.24 Clear
11/28/2020 04:01 AM 34.88 35.42 35.96 63.50 31.46 x 32.46 3.13 E 3.13 NE 3.36 E No 0.000 No Precipitation 11/22/2020 12:31 AM 11/22/2020 12:35 AM 0.000 0.000 0.000 0.000 0.000 1.24 Clear
11/28/2020 04:02 AM 34.88 35.06 35.42 63.50 31.46 x 32.46 2.91 NE 2.68 NE 3.36 E No 0.000 No Precipitation 11/22/2020 12:31 AM 11/22/2020 12:35 AM 0.000 0.000 0.000 0.000 0.000 1.24 Clear
11/28/2020 04:03 AM 34.70 34.70 34.70 63.50 31.46 x 32.46 2.68 NE 2.68 NE 3.36 E No 0.000 No Precipitation 11/22/2020 12:31 AM 11/22/2020 12:35 AM 0.000 0.000 0.000 0.000 0.000 1.24 Clear
11/28/2020 04:04 AM 34.52 34.52 34.34 63.50 31.46 x 32.46 2.46 NE 2.24 NE 3.36 E No 0.000 No Precipitation 11/22/2020 12:31 AM 11/22/2020 12:35 AM 0.000 0.000 0.000 0.000 0.000 1.24 Clear
11/28/2020 04:05 AM 34.34 34.52 34.52 63.50 31.46 x 32.46 2.46 NE 2.46 NE 3.36 E No 0.000 No Precipitation 11/22/2020 12:31 AM 11/22/2020 12:35 AM 0.000 0.000 0.000 0.000 0.000 1.24 Clear
11/28/2020 04:06 AM 34.34 34.52 34.70 63.50 31.46 x 32.46 2.24 NE 2.01 NE 3.36 E No 0.000 No Precipitation 11/22/2020 12:31 AM 11/22/2020 12:35 AM 0.000 0.000 0.000 0.000 0.000 1.24 Clear
11/28/2020 04:07 AM 34.52 34.88 35.06 63.50 31.46 x 32.46 2.24 NE 2.01 NE 3.36 E No 0.000 No Precipitation 11/22/2020 12:31 AM 11/22/2020 12:35 AM 0.000 0.000 0.000 0.000 0.000 1.24 Clear
11/28/2020 04:08 AM 34.52 34.70 34.70 63.50 31.46 x 32.46 2.01 NE 1.79 NE 3.36 E No 0.000 No Precipitation 11/22/2020 12:31 AM 11/22/2020 12:35 AM 0.000 0.000 0.000 0.000 0.000 1.24 Clear
11/28/2020 04:09 AM 34.34 34.16 33.98 63.50 31.46 99.0 32.46 1.79 NE 2.01 NE 3.36 E No 0.000 No Precipitation 11/22/2020 12:31 AM 11/22/2020 12:35 AM 0.000 0.000 0.000 0.000 0.000 1.24 Clear
11/28/2020 04:10 AM 33.98 33.80 33.62 63.50 31.46 98.0 32.46 2.01 NE 2.01 NE 3.36 NE No 0.000 No Precipitation 11/22/2020 12:31 AM 11/22/2020 12:35 AM 0.000 0.000 0.000 0.000 0.000 1.24 Clear
11/28/2020 04:11 AM 33.98 33.98 33.98 63.50 31.46 x 32.46 2.01 NE 2.01 NE 2.91 E No 0.000 No Precipitation 11/22/2020 12:31 AM 11/22/2020 12:35 AM 0.000 0.000 0.000 0.000 0.000 1.24 Clear
11/28/2020 04:12 AM 33.98 34.16 34.34 63.50 31.46 x 32.46 2.01 NE 2.01 E 2.68 NE No 0.000 No Precipitation 11/22/2020 12:31 AM 11/22/2020 12:35 AM 0.000 0.000 0.000 0.000 0.000 1.24 Clear
11/28/2020 04:13 AM 34.16 34.52 34.88 63.50 31.46 x 32.46 2.01 E 1.79 E 2.46 NE No 0.000 No Precipitation 11/22/2020 12:31 AM 11/22/2020 12:35 AM 0.000 0.000 0.000 0.000 0.000 1.24 Clear
11/28/2020 04:14 AM 34.16 34.70 35.06 63.50 31.46 x 32.46 2.01 E 1.12 E 2.46 NE No 0.000 No Precipitation 11/22/2020 12:31 AM 11/22/2020 12:35 AM 0.000 0.000 0.000 0.000 0.000 1.24 Clear
11/28/2020 04:15 AM 34.16 34.70 35.06 63.50 31.46 x 32.46 1.57 E 1.57 E 2.46 NE No 0.000 No Precipitation 11/22/2020 12:31 AM 11/22/2020 12:35 AM 0.000 0.000 0.000 0.000 0.000 1.24 Clear
11/28/2020 04:16 AM 34.16 34.34 34.70 63.50 31.46 x 32.46 1.34 E 1.34 E 2.46 NE No 0.000 No Precipitation 11/22/2020 12:31 AM 11/22/2020 12:35 AM 0.000 0.000 0.000 0.000 0.000 1.24 Clear
11/28/2020 04:18 AM 33.80 34.16 34.34 63.50 31.46 x 32.46 1.12 E 1.12 SE 2.46 NE No 0.000 No Precipitation 11/22/2020 12:31 AM 11/22/2020 12:35 AM 0.000 0.000 0.000 0.000 0.000 1.24 Clear
11/28/2020 04:19 AM 33.80 33.98 34.34 63.50 31.46 x 32.46 1.12 E 1.12 E 2.46 NE No 0.000 No Precipitation 11/22/2020 12:31 AM 11/22/2020 12:35 AM 0.000 0.000 0.000 0.000 0.000 1.24 Clear
11/28/2020 04:20 AM 33.80 33.98 34.16 63.50 31.46 x 32.46 1.34 E 1.79 E 2.46 NE No 0.000 No Precipitation 11/22/2020 12:31 AM 11/22/2020 12:35 AM 0.000 0.000 0.000 0.000 0.000 1.24 Clear
11/28/2020 04:21 AM 33.62 33.80 33.98 63.50 31.46 x 32.46 1.79 E 2.01 E 2.24 E No 0.000 No Precipitation 11/22/2020 12:31 AM 11/22/2020 12:35 AM 0.000 0.000 0.000 0.000 0.000 1.24 Clear
11/28/2020 04:22 AM 33.62 33.80 33.80 63.50 31.46 x 32.46 2.01 E 2.24 E 2.46 E No 0.000 No Precipitation 11/22/2020 12:31 AM 11/22/2020 12:35 AM 0.000 0.000 0.000 0.000 0.000 1.24 Clear
11/28/2020 04:23 AM 33.62 33.80 33.80 63.50 31.46 x 32.46 2.24 E 2.68 E 2.68 E No 0.000 No Precipitation 11/22/2020 12:31 AM 11/22/2020 12:35 AM 0.000 0.000 0.000 0.000 0.000 1.24 Clear
11/28/2020 04:24 AM 33.62 33.80 33.80 63.50 31.46 99.0 32.46 2.46 E 2.68 NE 2.68 E No 0.000 No Precipitation 11/22/2020 12:31 AM 11/22/2020 12:35 AM 0.000 0.000 0.000 0.000 0.000 1.24 Clear
11/28/2020 04:26 AM 33.80 33.98 34.16 63.50 31.46 x 32.46 2.46 E 2.46 E 2.68 E No 0.000 No Precipitation 11/22/2020 12:31 AM 11/22/2020 12:35 AM 0.000 0.000 0.000 0.000 0.000 1.24 Clear
11/28/2020 04:27 AM 33.98 34.16 34.34 63.50 31.46 x 32.46 2.46 E 2.68 NE 2.68 E No 0.000 No Precipitation 11/22/2020 12:31 AM 11/22/2020 12:35 AM 0.000 0.000 0.000 0.000 0.000 1.24 Clear
11/28/2020 04:28 AM 33.98 34.34 34.70 63.50 31.46 x 32.46 2.46 E 2.68 NE 2.68 E No 0.000 No Precipitation 11/22/2020 12:31 AM 11/22/2020 12:35 AM 0.000 0.000 0.000 0.000 0.000 1.24 Clear
11/28/2020 04:29 AM 34.16 34.52 34.88 63.50 31.46 x 32.46 2.68 E 2.91 E 2.91 E No 0.000 No Precipitation 11/22/2020 12:31 AM 11/22/2020 12:35 AM 0.000 0.000 0.000 0.000 0.000 1.24 Clear
11/28/2020 04:30 AM 34.16 34.52 34.70 63.50 31.46 x 32.46 2.68 E 2.68 E 2.91 E No 0.000 No Precipitation 11/22/2020 12:31 AM 11/22/2020 12:35 AM 0.000 0.000 0.000 0.000 0.000 1.24 Clear
11/28/2020 04:31 AM 34.16 34.34 34.52 63.50 31.46 x 32.46 2.46 E 2.01 E 2.91 E No 0.000 No Precipitation 11/22/2020 12:31 AM 11/22/2020 12:35 AM 0.000 0.000 0.000 0.000 0.000 1.24 Clear
11/28/2020 04:32 AM 33.98 34.16 34.52 63.50 31.46 x 32.46 2.24 E 2.24 NE 2.91 E No 0.000 No Precipitation 11/22/2020 12:31 AM 11/22/2020 12:35 AM 0.000 0.000 0.000 0.000 0.000 1.24 Clear
11/28/2020 04:33 AM 33.80 34.16 34.52 63.50 31.46 x 32.46 2.24 E 2.24 E 2.91 E No 0.000 No Precipitation 11/22/2020 12:31 AM 11/22/2020 12:35 AM 0.000 0.000 0.000 0.000 0.000 1.24 Clear
11/28/2020 04:34 AM 33.80 34.16 34.52 63.50 31.46 x 32.46 2.01 E 2.01 E 2.91 E No 0.000 No Precipitation 11/22/2020 12:31 AM 11/22/2020 12:35 AM 0.000 0.000 0.000 0.000 0.000 1.24 Clear
11/28/2020 04:35 AM 33.62 33.98 34.34 63.50 31.46 x 32.46 2.01 E 2.68 E 2.91 E No 0.000 No Precipitation 11/22/2020 12:31 AM 11/22/2020 12:35 AM 0.000 0.000 0.000 0.000 0.000 1.24 Clear
11/28/2020 04:36 AM 33.80 33.98 34.34 63.50 31.46 x 32.46 2.46 E 2.91 E 2.91 E No 0.000 No Precipitation 11/22/2020 12:31 AM 11/22/2020 12:35 AM 0.000 0.000 0.000 0.000 0.000 1.24 Clear
11/28/2020 04:37 AM 33.80 33.98 34.16 63.50 31.46 x 32.46 2.68 E 2.46 E 2.91 E No 0.000 No Precipitation 11/22/2020 12:31 AM 11/22/2020 12:35 AM 0.000 0.000 0.000 0.000 0.000 1.24 Clear
11/28/2020 04:38 AM 33.80 33.80 33.80 63.50 31.46 x 32.46 2.68 E 2.68 NE 2.91 E No 0.000 No Precipitation 11/22/2020 12:31 AM 11/22/2020 12:35 AM 0.000 0.000 0.000 0.000 0.000 1.24 Clear
11/28/2020 04:39 AM 33.80 33.98 33.98 63.50 31.46 x 32.46 2.68 NE 2.46 NE 2.91 E No 0.000 No Precipitation 11/22/2020 12:31 AM 11/22/2020 12:35 AM 0.000 0.000 0.000 0.000 0.000 1.24 Clear
11/28/2020 04:40 AM 33.98 34.16 34.16 63.50 31.46 x 32.46 2.46 NE 2.46 NE 2.91 E No 0.000 No Precipitation 11/22/2020 12:31 AM 11/22/2020 12:35 AM 0.000 0.000 0.000 0.000 0.000 1.24 Clear
11/28/2020 04:42 AM 34.16 34.16 34.16 63.50 31.46 x 32.46 2.46 NE 2.01 NE 2.91 E No 0.000 No Precipitation 11/22/2020 12:31 AM 11/22/2020 12:35 AM 0.000 0.000 0.000 0.000 0.000 1.24 Clear
11/28/2020 04:43 AM 34.16 34.16 33.98 63.50 31.46 x 32.46 2.24 NE 1.79 NE 2.91 E No 0.000 No Precipitation 11/22/2020 12:31 AM 11/22/2020 12:35 AM 0.000 0.000 0.000 0.000 0.000 1.24 Clear
11/28/2020 04:44 AM 33.98 33.98 33.80 63.50 31.46 x 32.46 1.79 NE 0.67 E 2.91 E No 0.000 No Precipitation 11/22/2020 12:31 AM 11/22/2020 12:35 AM 0.000 0.000 0.000 0.000 0.000 1.24 Clear
11/28/2020 04:45 AM 33.80 33.80 33.80 63.50 31.46 x 32.46 1.79 NE 1.79 NE 2.91 E No 0.000 No Precipitation 11/22/2020 12:31 AM 11/22/2020 12:35 AM 0.000 0.000 0.000 0.000 0.000 1.24 Clear
11/28/2020 04:46 AM 33.98 33.98 34.16 63.50 31.46 x 32.46 2.01 NE 2.01 NE 2.91 NE No 0.000 No Precipitation 11/22/2020 12:31 AM 11/22/2020 12:35 AM 0.000 0.000 0.000 0.000 0.000 1.24 Clear
11/28/2020 04:47 AM 33.98 34.16 34.16 63.50 31.46 x 32.46 2.01 NE 1.79 NE 2.68 NE No 0.000 No Precipitation 11/22/2020 12:31 AM 11/22/2020 12:35 AM 0.000 0.000 0.000 0.000 0.000 1.24 Clear
11/28/2020 04:48 AM 33.98 33.98 34.16 63.50 31.46 x 32.46 2.01 NE 2.01 NE 2.68 NE No 0.000 No Precipitation 11/22/2020 12:31 AM 11/22/2020 12:35 AM 0.000 0.000 0.000 0.000 0.000 1.24 Clear
11/28/2020 04:50 AM 33.98 33.98 33.80 63.50 31.46 99.0 32.46 1.79 NE 2.01 NE 2.68 NE No 0.000 No Precipitation 11/22/2020 12:31 AM 11/22/2020 12:35 AM 0.000 0.000 0.000 0.000 0.000 1.24 Clear
11/28/2020 04:52 AM 33.80 33.80 33.62 63.50 31.46 x 32.46 1.79 NE 1.57 NE 2.24 NE No 0.000 No Precipitation 11/22/2020 12:31 AM 11/22/2020 12:35 AM 0.000 0.000 0.000 0.000 0.000 1.24 Clear
11/28/2020 04:53 AM 33.62 33.62 33.62 63.50 31.46 x 32.46 1.57 NE 1.57 NE 2.24 NE No 0.000 No Precipitation 11/22/2020 12:31 AM 11/22/2020 12:35 AM 0.000 0.000 0.000 0.000 0.000 1.24 Clear
11/28/2020 04:54 AM 33.44 33.44 33.44 63.50 31.46 x 32.46 1.57 NE 1.79 NE 2.24 NE No 0.000 No Precipitation 11/22/2020 12:31 AM 11/22/2020 12:35 AM 0.000 0.000 0.000 0.000 0.000 1.24 Clear
11/28/2020 04:55 AM 33.26 33.26 33.08 63.50 31.46 99.0 32.46 1.79 NE 2.01 NE 2.24 NE No 0.000 No Precipitation 11/22/2020 12:31 AM 11/22/2020 12:35 AM 0.000 0.000 0.000 0.000 0.000 1.24 Clear
11/28/2020 04:56 AM 33.08 33.08 33.08 63.50 31.46 x 32.46 1.79 NE 1.57 NE 2.24 NE No 0.000 No Precipitation 11/22/2020 12:31 AM 11/22/2020 12:35 AM 0.000 0.000 0.000 0.000 0.000 1.24 Clear
11/28/2020 04:57 AM 33.08 33.44 33.62 63.50 31.46 x 32.46 1.79 NE 1.57 NE 2.24 NE No 0.000 No Precipitation 11/22/2020 12:31 AM 11/22/2020 12:35 AM 0.000 0.000 0.000 0.000 0.000 1.24 Clear
11/28/2020 04:58 AM 33.26 33.62 34.16 63.50 31.46 x 32.46 1.57 NE 1.57 NE 2.24 NE No 0.000 No Precipitation 11/22/2020 12:31 AM 11/22/2020 12:35 AM 0.000 0.000 0.000 0.000 0.000 1.24 Clear
11/28/2020 04:59 AM 33.44 33.98 34.70 63.50 31.46 x 32.46 1.34 NE 1.57 NE 2.24 NE No 0.000 No Precipitation 11/22/2020 12:31 AM 11/22/2020 12:35 AM 0.000 0.000 0.000 0.000 0.000 1.24 Clear
11/28/2020 05:00 AM 33.80 34.52 35.24 63.50 31.46 x 32.46 1.12 NE 1.12 NE 2.24 NE No 0.000 No Precipitation 11/22/2020 12:31 AM 11/22/2020 12:35 AM 0.000 0.000 0.000 0.000 0.000 1.24 Clear
11/28/2020 05:01 AM 34.16 34.70 35.24 63.50 31.46 x 32.46 1.12 NE 1.34 NE 2.01 NE No 0.000 No Precipitation 11/22/2020 12:31 AM 11/22/2020 12:35 AM 0.000 0.000 0.000 0.000 0.000 1.24 Clear
11/28/2020 05:02 AM 34.16 34.52 34.70 63.50 31.46 x 32.46 1.34 NE 1.34 NE 2.01 NE No 0.000 No Precipitation 11/22/2020 12:31 AM 11/22/2020 12:35 AM 0.000 0.000 0.000 0.000 0.000 1.24 Clear
11/28/2020 05:03 AM 34.16 33.98 33.80 63.50 31.46 99.0 32.46 1.34 NE 1.34 NE 2.01 NE No 0.000 No Precipitation 11/22/2020 12:31 AM 11/22/2020 12:35 AM 0.000 0.000 0.000 0.000 0.000 1.24 Clear
11/28/2020 05:04 AM 33.98 33.62 33.26 63.50 31.46 98.0 32.46 1.34 NE 1.57 NE 2.01 NE No 0.000 No Precipitation 11/22/2020 12:31 AM 11/22/2020 12:35 AM 0.000 0.000 0.000 0.000 0.000 1.24 Clear
11/28/2020 05:05 AM 33.98 33.80 33.62 63.50 31.46 99.0 32.46 1.57 NE 1.57 NE 2.01 NE No 0.000 No Precipitation 11/22/2020 12:31 AM 11/22/2020 12:35 AM 0.000 0.000 0.000 0.000 0.000 1.24 Clear
11/28/2020 05:06 AM 33.98 33.98 33.80 63.50 31.46 99.0 32.46 1.57 NE 0.89 NE 2.01 NE No 0.000 No Precipitation 11/22/2020 12:31 AM 11/22/2020 12:35 AM 0.000 0.000 0.000 0.000 0.000 1.24 Clear
11/28/2020 05:07 AM 33.98 33.98 33.80 63.50 31.46 99.0 32.46 1.34 NE 1.34 NE 1.79 NE No 0.000 No Precipitation 11/22/2020 12:31 AM 11/22/2020 12:35 AM 0.000 0.000 0.000 0.000 0.000 1.24 Clear
11/28/2020 05:08 AM 34.16 34.16 33.98 63.50 31.46 99.0 32.46 1.34 NE 0.89 NE 1.79 NE No 0.000 No Precipitation 11/22/2020 12:31 AM 11/22/2020 12:35 AM 0.000 0.000 0.000 0.000 0.000 1.24 Clear
11/28/2020 05:09 AM 34.34 34.16 33.80 63.50 31.46 98.0 32.46 1.12 N 0.67 N 1.79 E No 0.000 No Precipitation 11/22/2020 12:31 AM 11/22/2020 12:35 AM 0.000 0.000 0.000 0.000 0.000 1.24 Clear
11/28/2020 05:10 AM 34.52 34.16 33.62 63.50 31.46 97.0 32.46 0.89 N 0.45 N 1.79 E No 0.000 No Precipitation 11/22/2020 12:31 AM 11/22/2020 12:35 AM 0.000 0.000 0.000 0.000 0.000 1.24 Clear
11/28/2020 05:11 AM 34.52 33.98 33.26 63.50 31.46 95.0 32.46 0.67 N 1.12 W 1.79 E No 0.000 No Precipitation 11/22/2020 12:31 AM 11/22/2020 12:35 AM 0.000 0.000 0.000 0.000 0.000 1.24 Clear
11/28/2020 05:12 AM 34.52 33.98 33.08 63.50 31.46 94.0 32.46 1.12 W 1.79 W 1.79 W No 0.000 No Precipitation 11/22/2020 12:31 AM 11/22/2020 12:35 AM 0.000 0.000 0.000 0.000 0.000 1.24 Clear
11/28/2020 05:13 AM 34.52 33.80 33.08 63.50 31.46 94.0 32.46 1.34 W 0.89 NW 1.79 W No 0.000 No Precipitation 11/22/2020 12:31 AM 11/22/2020 12:35 AM 0.000 0.000 0.000 0.000 0.000 1.24 Clear
11/28/2020 05:14 AM 34.52 33.62 32.72 63.50 31.46 93.0 32.46 1.12 W 0.89 NW 1.79 W No 0.000 No Precipitation 11/22/2020 12:31 AM 11/22/2020 12:35 AM 0.000 0.000 0.000 0.000 0.000 1.24 Clear
11/28/2020 05:15 AM 34.34 33.62 32.72 63.50 31.46 93.0 32.46 0.89 NW 0.67 NW 1.79 W No 0.000 No Precipitation 11/22/2020 12:31 AM 11/22/2020 12:35 AM 0.000 0.000 0.000 0.000 0.000 1.24 Clear
11/28/2020 05:16 AM 34.16 33.62 32.54 63.50 31.46 93.0 32.46 0.67 NW 0.89 N 1.79 W No 0.000 No Precipitation 11/22/2020 12:31 AM 11/22/2020 12:35 AM 0.000 0.000 0.000 0.000 0.000 1.24 Clear
11/28/2020 05:17 AM 34.16 33.62 32.54 63.50 31.46 93.0 32.46 0.89 NW 0.89 W 1.79 W No 0.000 No Precipitation 11/22/2020 12:31 AM 11/22/2020 12:35 AM 0.000 0.000 0.000 0.000 0.000 1.24 Clear
11/28/2020 05:18 AM 34.16 33.62 32.54 63.50 31.46 93.0 32.46 0.89 NW 1.12 NW 1.79 W No 0.000 No Precipitation 11/22/2020 12:31 AM 11/22/2020 12:35 AM 0.000 0.000 0.000 0.000 0.000 1.24 Clear
11/28/2020 05:19 AM 34.16 33.44 32.18 63.50 31.46 93.0 32.46 1.12 W 1.57 W 1.79 W No 0.000 No Precipitation 11/22/2020 12:31 AM 11/22/2020 12:35 AM 0.000 0.000 0.000 0.000 0.000 1.24 Clear
11/28/2020 05:20 AM 33.98 33.26 32.00 63.50 31.46 92.0 32.46 1.57 W 1.34 W 1.79 W No 0.000 No Precipitation 11/22/2020 12:31 AM 11/22/2020 12:35 AM 0.000 0.000 0.000 0.000 0.000 1.24 Clear
11/28/2020 05:21 AM 33.80 32.90 31.28 63.50 31.46 91.0 32.46 1.57 W 2.01 W 2.01 W No 0.000 No Precipitation 11/22/2020 12:31 AM 11/22/2020 12:35 AM 0.000 0.000 0.000 0.000 0.000 1.24 Clear
11/28/2020 05:22 AM 33.62 32.72 31.10 63.50 31.46 90.0 32.46 1.79 W 1.57 W 2.24 W No 0.000 No Precipitation 11/22/2020 12:31 AM 11/22/2020 12:35 AM 0.000 0.000 0.000 0.000 0.000 1.24 Clear
11/28/2020 05:23 AM 33.62 32.72 31.10 63.50 31.46 90.0 32.46 1.79 W 1.57 W 2.24 W No 0.000 No Precipitation 11/22/2020 12:31 AM 11/22/2020 12:35 AM 0.000 0.000 0.000 0.000 0.000 1.24 Clear
11/28/2020 05:24 AM 33.80 32.90 31.46 63.50 31.46 91.0 32.46 1.34 W 1.12 W 2.24 W No 0.000 No Precipitation 11/22/2020 12:31 AM 11/22/2020 12:35 AM 0.000 0.000 0.000 0.000 0.000 1.24 Clear
11/28/2020 05:25 AM 33.80 33.08 32.00 63.50 31.46 93.0 32.46 1.12 W 1.57 NW 2.24 W No 0.000 No Precipitation 11/22/2020 12:31 AM 11/22/2020 12:35 AM 0.000 0.000 0.000 0.000 0.000 1.24 Clear
11/28/2020 05:26 AM 33.80 33.08 32.18 63.50 31.46 94.0 32.46 1.57 NW 2.24 W 2.24 W No 0.000 No Precipitation 11/22/2020 12:31 AM 11/22/2020 12:35 AM 0.000 0.000 0.000 0.000 0.000 1.24 Clear
11/28/2020 05:27 AM 33.62 32.90 32.00 63.50 31.46 94.0 32.46 2.24 W 2.91 NW 3.13 W No 0.000 No Precipitation 11/22/2020 12:31 AM 11/22/2020 12:35 AM 0.000 0.000 0.000 0.000 0.000 1.24 Clear
11/28/2020 05:28 AM 33.44 32.90 32.18 63.50 31.46 95.0 32.46 2.91 NW 2.91 W 3.13 W No 0.000 No Precipitation 11/22/2020 12:31 AM 11/22/2020 12:35 AM 0.000 0.000 0.000 0.000 0.000 1.24 Clear
11/28/2020 05:29 AM 33.26 32.90 32.18 63.50 31.46 96.0 32.46 2.91 W 2.91 W 3.13 W No 0.000 No Precipitation 11/22/2020 12:31 AM 11/22/2020 12:35 AM 0.000 0.000 0.000 0.000 0.000 1.24 Clear
11/28/2020 05:30 AM 33.08 32.90 32.36 63.50 31.46 97.0 32.46 2.91 W 2.68 W 3.13 W No 0.000 No Precipitation 11/22/2020 12:31 AM 11/22/2020 12:35 AM 0.000 0.000 0.000 0.000 0.000 1.24 Clear
11/28/2020 05:31 AM 32.90 32.72 32.36 63.50 31.46 97.0 32.46 2.68 W 2.46 W 3.13 W No 0.000 No Precipitation 11/22/2020 12:31 AM 11/22/2020 12:35 AM 0.000 0.000 0.000 0.000 0.000 1.24 Clear
11/28/2020 05:32 AM 32.90 32.72 32.36 63.50 31.46 98.0 32.46 2.24 W 2.68 W 3.13 W No 0.000 No Precipitation 11/22/2020 12:31 AM 11/22/2020 12:35 AM 0.000 0.000 0.000 0.000 0.000 1.24 Clear
11/28/2020 05:33 AM 32.72 32.72 32.36 63.50 31.46 99.0 32.46 2.46 W 2.24 W 3.13 W No 0.000 No Precipitation 11/22/2020 12:31 AM 11/22/2020 12:35 AM 0.000 0.000 0.000 0.000 0.000 1.24 Clear
11/28/2020 05:34 AM 32.72 32.72 32.72 63.50 31.46 100.0 32.46 2.24 W 2.24 W 3.13 W No 0.000 No Precipitation 11/22/2020 12:31 AM 11/22/2020 12:35 AM 0.000 0.000 0.000 0.000 0.000 1.24 Clear
11/28/2020 05:35 AM 32.72 32.72 32.72 63.50 31.46 x 32.46 2.01 W 2.46 NW 3.13 W No 0.000 No Precipitation 11/22/2020 12:31 AM 11/22/2020 12:35 AM 0.000 0.000 0.000 0.000 0.000 1.24 Clear
11/28/2020 05:36 AM 32.72 32.72 32.72 63.50 31.46 x 32.46 1.57 NW 2.01 NW 3.13 W No 0.000 No Precipitation 11/22/2020 12:31 AM 11/22/2020 12:35 AM 0.000 0.000 0.000 0.000 0.000 1.24 Clear
11/28/2020 05:37 AM 32.90 32.90 33.08 63.50 31.46 x 32.46 1.57 NW 1.57 W 3.13 W No 0.000 No Precipitation 11/22/2020 12:31 AM 11/22/2020 12:35 AM 0.000 0.000 0.000 0.000 0.000 1.24 Clear
11/28/2020 05:38 AM 32.90 33.08 33.26 63.50 31.46 x 32.46 1.34 NW 1.12 W 3.13 W No 0.000 No Precipitation 11/22/2020 12:31 AM 11/22/2020 12:35 AM 0.000 0.000 0.000 0.000 0.000 1.24 Clear
11/28/2020 05:39 AM 33.08 33.26 33.44 63.50 31.46 x 32.46 1.57 W 1.34 W 3.13 W No 0.000 No Precipitation 11/22/2020 12:31 AM 11/22/2020 12:35 AM 0.000 0.000 0.000 0.000 0.000 1.24 Clear
11/28/2020 05:40 AM 33.08 33.44 33.98 63.50 31.46 x 32.46 1.57 W 1.79 W 2.68 W No 0.000 No Precipitation 11/22/2020 12:31 AM 11/22/2020 12:35 AM 0.000 0.000 0.000 0.000 0.000 1.24 Clear
11/28/2020 05:41 AM 33.26 33.62 34.16 63.50 31.46 x 32.46 1.57 W 1.79 W 2.68 W No 0.000 No Precipitation 11/22/2020 12:31 AM 11/22/2020 12:35 AM 0.000 0.000 0.000 0.000 0.000 1.24 Clear
11/28/2020 05:42 AM 33.26 33.80 34.34 63.50 31.46 x 32.46 1.79 W 1.57 W 2.68 W No 0.000 No Precipitation 11/22/2020 12:31 AM 11/22/2020 12:35 AM 0.000 0.000 0.000 0.000 0.000 1.24 Clear
11/28/2020 05:43 AM 33.26 33.62 34.16 63.50 31.46 x 32.46 1.34 W 1.12 W 2.46 NW No 0.000 No Precipitation 11/22/2020 12:31 AM 11/22/2020 12:35 AM 0.000 0.000 0.000 0.000 0.000 1.24 Clear
11/28/2020 05:44 AM 33.08 33.44 33.80 63.50 31.46 x 32.46 1.12 W 0.67 W 2.46 NW No 0.000 No Precipitation 11/22/2020 12:31 AM 11/22/2020 12:35 AM 0.000 0.000 0.000 0.000 0.000 1.24 Clear
11/28/2020 05:45 AM 32.90 33.08 33.26 63.50 31.46 x 32.46 0.89 W 0.89 NW 2.24 W No 0.000 No Precipitation 11/22/2020 12:31 AM 11/22/2020 12:35 AM 0.000 0.000 0.000 0.000 0.000 1.24 Clear
11/28/2020 05:46 AM 32.54 32.36 32.00 63.50 31.46 98.0 32.46 1.12 W 1.34 W 2.24 W No 0.000 No Precipitation 11/22/2020 12:31 AM 11/22/2020 12:35 AM 0.000 0.000 0.000 0.000 0.000 1.24 Clear
11/28/2020 05:47 AM 32.18 31.82 31.28 63.50 31.46 96.0 32.46 1.57 W 1.79 W 2.24 W No 0.000 No Precipitation 11/22/2020 12:31 AM 11/22/2020 12:35 AM 0.000 0.000 0.000 0.000 0.000 1.24 Clear
11/28/2020 05:49 AM 32.00 31.82 31.46 63.50 31.46 98.0 32.46 2.01 SW 1.57 SW 2.68 SW No 0.000 No Precipitation 11/22/2020 12:31 AM 11/22/2020 12:35 AM 0.000 0.000 0.000 0.000 0.000 1.24 Clear
11/28/2020 05:50 AM 32.00 31.82 31.46 63.50 31.46 98.0 32.46 1.79 SW 1.34 S 2.68 SW No 0.000 No Precipitation 11/22/2020 12:31 AM 11/22/2020 12:35 AM 0.000 0.000 0.000 0.000 0.000 1.24 Clear
11/28/2020 05:51 AM 31.82 31.64 31.28 63.50 31.46 98.0 32.46 1.34 S 0.89 S 2.68 SW No 0.000 No Precipitation 11/22/2020 12:31 AM 11/22/2020 12:35 AM 0.000 0.000 0.000 0.000 0.000 1.24 Clear
11/28/2020 05:53 AM 31.46 31.10 30.38 63.50 31.46 96.0 32.46 1.12 SW 1.12 W 2.68 SW No 0.000 No Precipitation 11/22/2020 12:31 AM 11/22/2020 12:35 AM 0.000 0.000 0.000 0.000 0.000 1.24 Clear
11/28/2020 05:54 AM 31.64 31.46 31.28 63.50 31.46 98.0 32.46 1.12 W 1.34 W 2.68 SW No 0.000 No Precipitation 11/22/2020 12:31 AM 11/22/2020 12:35 AM 0.000 0.000 0.000 0.000 0.000 1.24 Clear
11/28/2020 05:55 AM 31.64 31.64 31.64 63.50 31.46 99.0 32.46 1.34 W 1.57 W 2.68 SW No 0.000 No Precipitation 11/22/2020 12:31 AM 11/22/2020 12:35 AM 0.000 0.000 0.000 0.000 0.000 1.24 Clear
11/28/2020 05:56 AM 31.82 32.18 32.36 63.50 31.46 x 32.46 1.57 W 1.79 W 2.68 SW No 0.000 No Precipitation 11/22/2020 12:31 AM 11/22/2020 12:35 AM 0.000 0.000 0.000 0.000 0.000 1.24 Clear
11/28/2020 05:57 AM 32.18 32.72 33.26 63.50 31.46 x 32.46 1.79 W 2.46 W 2.68 SW No 0.000 No Precipitation 11/22/2020 12:31 AM 11/22/2020 12:35 AM 0.000 0.000 0.000 0.000 0.000 1.24 Clear
11/28/2020 05:58 AM 32.36 32.72 33.26 63.50 31.46 x 32.46 2.01 W 1.57 W 2.46 W No 0.000 No Precipitation 11/22/2020 12:31 AM 11/22/2020 12:35 AM 0.000 0.000 0.000 0.000 0.000 1.24 Clear
11/28/2020 05:59 AM 32.36 32.54 32.90 63.50 31.46 x 32.46 2.01 W 2.24 W 2.46 W No 0.000 No Precipitation 11/22/2020 12:31 AM 11/22/2020 12:35 AM 0.000 0.000 0.000 0.000 0.000 1.24 Clear
11/28/2020 06:00 AM 32.36 32.72 33.08 63.50 31.46 x 32.46 2.24 W 2.24 SW 2.46 W No 0.000 No Precipitation 11/22/2020 12:31 AM 11/22/2020 12:35 AM 0.000 0.000 0.000 0.000 0.000 1.24 Clear
11/28/2020 06:01 AM 32.18 32.36 32.72 63.50 31.46 x 32.46 2.46 SW 2.91 SW 2.91 SW No 0.000 No Precipitation 11/22/2020 12:31 AM 11/22/2020 12:35 AM 0.000 0.000 0.000 0.000 0.000 1.24 Clear
11/28/2020 06:02 AM 31.82 31.82 31.64 63.50 31.46 99.0 32.46 2.68 SW 2.91 SW 3.13 SW No 0.000 No Precipitation 11/22/2020 12:31 AM 11/22/2020 12:35 AM 0.000 0.000 0.000 0.000 0.000 1.24 Clear
11/28/2020 06:03 AM 31.82 31.10 31.64 63.50 31.46 96.0 32.46 2.91 SW 2.46 SW 3.13 SW No 0.000 No Precipitation 11/22/2020 12:31 AM 11/22/2020 12:35 AM 0.000 0.000 0.000 0.000 0.000 1.24 Clear
11/28/2020 06:05 AM 31.10 30.74 29.84 63.50 31.10 95.0 32.46 2.46 SW 2.24 SW 3.13 SW No 0.000 No Precipitation 11/22/2020 12:31 AM 11/22/2020 12:35 AM 0.000 0.000 0.000 0.000 0.000 1.24 Clear
11/28/2020 06:06 AM 30.92 30.38 29.48 63.50 30.92 94.0 32.46 2.24 SW 2.01 W 3.13 SW No 0.000 No Precipitation 11/22/2020 12:31 AM 11/22/2020 12:35 AM 0.000 0.000 0.000 0.000 0.000 1.24 Clear
11/28/2020 06:07 AM 30.56 30.20 29.30 63.50 30.56 95.0 32.46 2.01 SW 1.34 W 3.13 SW No 0.000 No Precipitation 11/22/2020 12:31 AM 11/22/2020 12:35 AM 0.000 0.000 0.000 0.000 0.000 1.24 Clear
11/28/2020 06:08 AM 30.38 30.20 29.48 63.50 30.38 96.0 32.46 1.57 W 1.34 W 3.13 SW No 0.000 No Precipitation 11/22/2020 12:31 AM 11/22/2020 12:35 AM 0.000 0.000 0.000 0.000 0.000 1.24 Clear
11/28/2020 06:09 AM 30.38 30.20 29.66 63.50 30.38 97.0 32.46 1.57 SW 2.01 SW 3.13 SW No 0.000 No Precipitation 11/22/2020 12:31 AM 11/22/2020 12:35 AM 0.000 0.000 0.000 0.000 0.000 1.24 Clear
11/28/2020 06:10 AM 30.20 30.20 29.84 63.50 30.20 99.0 32.46 2.01 SW 2.01 SW 3.13 SW No 0.000 No Precipitation 11/22/2020 12:31 AM 11/22/2020 12:35 AM 0.000 0.000 0.000 0.000 0.000 1.24 Clear
11/28/2020 06:11 AM 30.20 30.56 30.38 63.50 30.20 x 32.46 2.24 SW 2.01 SW 3.13 SW No 0.000 No Precipitation 11/22/2020 12:31 AM 11/22/2020 12:35 AM 0.000 0.000 0.000 0.000 0.000 1.24 Clear
11/28/2020 06:12 AM 30.20 30.56 30.56 63.50 30.20 x 32.46 2.01 SW 2.24 SW 2.91 SW No 0.000 No Precipitation 11/22/2020 12:31 AM 11/22/2020 12:35 AM 0.000 0.000 0.000 0.000 0.000 1.24 Clear
11/28/2020 06:13 AM 30.02 30.38 30.56 63.50 30.02 x 32.46 2.01 SW 1.79 SW 2.46 SW No 0.000 No Precipitation 11/22/2020 12:31 AM 11/22/2020 12:35 AM 0.000 0.000 0.000 0.000 0.000 1.24 Clear
11/28/2020 06:14 AM 30.02 30.38 30.56 63.50 30.02 x 32.46 1.79 SW 1.79 SW 2.46 SW No 0.000 No Precipitation 11/22/2020 12:31 AM 11/22/2020 12:35 AM 0.000 0.000 0.000 0.000 0.000 1.24 Clear
11/28/2020 06:15 AM 30.02 30.56 30.92 63.50 30.02 x 32.46 1.79 SW 2.24 W 2.46 SW No 0.000 No Precipitation 11/22/2020 12:31 AM 11/22/2020 12:35 AM 0.000 0.000 0.000 0.000 0.000 1.24 Clear
11/28/2020 06:16 AM 30.02 30.56 31.28 63.50 30.02 x 32.46 2.01 W 2.24 W 2.46 SW No 0.000 No Precipitation 11/22/2020 12:31 AM 11/22/2020 12:35 AM 0.000 0.000 0.000 0.000 0.000 1.24 Clear
11/28/2020 06:17 AM 30.02 30.74 31.64 63.50 30.02 x 32.46 2.24 W 1.79 W 2.68 W No 0.000 No Precipitation 11/22/2020 12:31 AM 11/22/2020 12:35 AM 0.000 0.000 0.000 0.000 0.000 1.24 Clear
11/28/2020 06:18 AM 30.56 31.64 32.90 63.50 30.02 x 32.46 2.24 W 2.01 W 2.68 W No 0.000 No Precipitation 11/22/2020 12:31 AM 11/22/2020 12:35 AM 0.000 0.000 0.000 0.000 0.000 1.24 Clear
11/28/2020 06:19 AM 31.10 32.36 33.98 63.50 30.02 x 32.46 2.01 W 2.01 W 2.68 W No 0.000 No Precipitation 11/22/2020 12:31 AM 11/22/2020 12:35 AM 0.000 0.000 0.000 0.000 0.000 1.24 Clear
11/28/2020 06:20 AM 31.46 32.72 34.52 63.50 30.02 x 32.46 2.24 W 2.24 W 2.68 W No 0.000 No Precipitation 11/22/2020 12:31 AM 11/22/2020 12:35 AM 0.000 0.000 0.000 0.000 0.000 1.24 Clear
11/28/2020 06:21 AM 31.64 32.90 34.52 63.50 30.02 x 32.46 2.46 W 2.91 W 3.36 W No 0.000 No Precipitation 11/22/2020 12:31 AM 11/22/2020 12:35 AM 0.000 0.000 0.000 0.000 0.000 1.24 Clear
11/28/2020 06:22 AM 31.82 32.90 34.34 63.50 30.02 x 32.46 2.68 W 2.91 W 3.36 W No 0.000 No Precipitation 11/22/2020 12:31 AM 11/22/2020 12:35 AM 0.000 0.000 0.000 0.000 0.000 1.24 Clear
11/28/2020 06:23 AM 32.00 32.90 33.98 63.50 30.02 x 32.46 2.46 W 2.46 W 3.36 W No 0.000 No Precipitation 11/22/2020 12:31 AM 11/22/2020 12:35 AM 0.000 0.000 0.000 0.000 0.000 1.24 Clear
11/28/2020 06:26 AM 32.36 32.72 33.44 63.50 30.02 x 32.46 2.24 W 2.46 W 3.36 W No 0.000 No Precipitation 11/22/2020 12:31 AM 11/22/2020 12:35 AM 0.000 0.000 0.000 0.000 0.000 1.24 Clear
11/28/2020 06:28 AM 32.18 32.36 32.72 63.50 30.02 x 32.46 2.91 W 3.13 W 3.80 W No 0.000 No Precipitation 11/22/2020 12:31 AM 11/22/2020 12:35 AM 0.000 0.000 0.000 0.000 0.000 1.24 Clear
11/28/2020 06:29 AM 32.18 32.36 32.72 63.50 30.02 x 32.46 2.91 W 3.13 W 3.80 W No 0.000 No Precipitation 11/22/2020 12:31 AM 11/22/2020 12:35 AM 0.000 0.000 0.000 0.000 0.000 1.24 Clear
11/28/2020 06:30 AM 32.00 32.36 32.72 63.50 30.02 x 32.46 2.91 W 2.46 W 3.80 W No 0.000 No Precipitation 11/22/2020 12:31 AM 11/22/2020 12:35 AM 0.000 0.000 0.000 0.000 0.000 1.24 Clear
11/28/2020 06:31 AM 32.00 32.36 32.72 63.50 30.02 x 32.46 2.46 W 2.68 W 3.80 W No 0.000 No Precipitation 11/22/2020 12:31 AM 11/22/2020 12:35 AM 0.000 0.000 0.000 0.000 0.000 1.24 Clear
11/28/2020 06:32 AM 32.18 32.54 33.08 63.50 30.02 x 32.46 2.46 W 1.79 W 3.80 W No 0.000 No Precipitation 11/22/2020 12:31 AM 11/22/2020 12:35 AM 0.000 0.000 0.000 0.000 0.000 1.24 Clear
11/28/2020 06:33 AM 32.18 32.72 33.26 63.50 30.02 x 32.46 2.24 W 2.46 W 3.80 W No 0.000 No Precipitation 11/22/2020 12:31 AM 11/22/2020 12:35 AM 0.000 0.000 0.000 0.000 0.000 1.24 Clear
11/28/2020 06:34 AM 32.36 32.72 33.44 63.50 30.02 x 32.46 2.24 W 1.79 W 3.80 W No 0.000 No Precipitation 11/22/2020 12:31 AM 11/22/2020 12:35 AM 0.000 0.000 0.000 0.000 0.000 1.24 Clear
11/28/2020 06:35 AM 32.36 33.08 33.80 63.50 30.02 x 32.46 1.79 W 2.01 W 3.80 W No 0.000 No Precipitation 11/22/2020 12:31 AM 11/22/2020 12:35 AM 0.000 0.000 0.000 0.000 0.000 1.24 Clear
11/28/2020 06:36 AM 32.54 33.08 33.62 63.50 30.02 x 32.46 1.57 W 1.57 W 3.80 W No 0.000 No Precipitation 11/22/2020 12:31 AM 11/22/2020 12:35 AM 0.000 0.000 0.000 0.000 0.000 1.24 Clear
11/28/2020 06:37 AM 32.36 32.90 33.26 63.50 30.02 x 32.46 1.34 W 0.89 NW 3.80 W No 0.000 No Precipitation 11/22/2020 12:31 AM 11/22/2020 12:35 AM 0.000 0.000 0.000 0.000 0.000 1.24 Clear
11/28/2020 06:38 AM 32.36 32.72 33.26 63.50 30.02 x 32.46 1.12 W 1.12 N 3.36 W No 0.000 No Precipitation 11/22/2020 12:31 AM 11/22/2020 12:35 AM 0.000 0.000 0.000 0.000 0.000 1.24 Clear
11/28/2020 06:39 AM 32.54 32.90 33.44 63.50 30.02 x 32.46 0.89 W 0.89 W 3.13 W No 0.000 No Precipitation 11/22/2020 12:31 AM 11/22/2020 12:35 AM 0.000 0.000 0.000 0.000 0.000 1.24 Clear
11/28/2020 06:41 AM 32.18 32.54 32.90 63.50 30.02 x 32.46 0.89 W 1.34 W 3.13 W No 0.000 No Precipitation 11/22/2020 12:31 AM 11/22/2020 12:35 AM 0.000 0.000 0.000 0.000 0.000 1.24 Clear
11/28/2020 06:42 AM 31.82 32.00 32.18 63.50 30.02 x 32.46 1.34 W 1.57 W 3.13 W No 0.000 No Precipitation 11/22/2020 12:31 AM 11/22/2020 12:35 AM 0.000 0.000 0.000 0.000 0.000 1.24 Clear
11/28/2020 06:43 AM 31.64 31.82 31.82 63.50 30.02 x 32.46 1.57 W 1.79 W 2.46 W No 0.000 No Precipitation 11/22/2020 12:31 AM 11/22/2020 12:35 AM 0.000 0.000 0.000 0.000 0.000 1.24 Clear
11/28/2020 06:44 AM 31.28 31.46 31.64 63.50 30.02 x 32.46 1.57 W 0.89 W 2.46 W No 0.000 No Precipitation 11/22/2020 12:31 AM 11/22/2020 12:35 AM 0.000 0.000 0.000 0.000 0.000 1.24 Clear
11/28/2020 06:45 AM 31.28 31.64 31.82 63.50 30.02 x 32.46 0.89 W 0.67 NW 2.46 W No 0.000 No Precipitation 11/22/2020 12:31 AM 11/22/2020 12:35 AM 0.000 0.000 0.000 0.000 0.000 1.24 Clear
11/28/2020 06:46 AM 31.46 31.82 32.36 63.50 30.02 x 32.46 0.45 W 0.22 W 1.79 W No 0.000 No Precipitation 11/22/2020 12:31 AM 11/22/2020 12:35 AM 0.000 0.000 0.000 0.000 0.000 1.24 Clear
11/28/2020 06:47 AM 31.82 32.54 33.44 63.50 30.02 x 32.46 0.22 E 0.67 N 1.79 W No 0.000 No Precipitation 11/22/2020 12:31 AM 11/22/2020 12:35 AM 0.000 0.000 0.000 0.000 0.000 1.24 Clear
11/28/2020 06:48 AM 32.00 32.90 33.98 63.50 30.02 x 32.46 0.67 N 0.89 N 1.79 W No 0.000 No Precipitation 11/22/2020 12:31 AM 11/22/2020 12:35 AM 0.000 0.000 0.000 0.000 0.000 1.24 Clear
11/28/2020 06:49 AM 32.18 33.08 34.34 63.50 30.02 x 32.46 0.89 N 1.12 N 1.79 W No 0.000 No Precipitation 11/22/2020 12:31 AM 11/22/2020 12:35 AM 0.000 0.000 0.000 0.000 0.000 1.24 Clear
11/28/2020 06:50 AM 32.54 33.62 35.06 63.50 30.02 x 32.46 0.67 N 0.22 N 1.79 W No 0.000 No Precipitation 11/22/2020 12:31 AM 11/22/2020 12:35 AM 0.000 0.000 0.000 0.000 0.000 1.24 Clear
11/28/2020 06:51 AM 32.54 33.80 35.24 63.50 30.02 x 32.46 0.45 NW 1.12 NW 1.79 W No 0.000 No Precipitation 11/22/2020 12:31 AM 11/22/2020 12:35 AM 0.000 0.000 0.000 0.000 0.000 1.24 Clear
11/28/2020 06:52 AM 32.54 33.80 35.24 63.50 30.02 x 32.46 0.67 NW 1.12 NW 1.79 W No 0.000 No Precipitation 11/22/2020 12:31 AM 11/22/2020 12:35 AM 0.000 0.000 0.000 0.000 0.000 1.24 Clear
11/28/2020 06:53 AM 32.54 33.80 35.06 63.50 30.02 x 32.46 1.12 NW 1.34 NW 1.79 W No 0.000 No Precipitation 11/22/2020 12:31 AM 11/22/2020 12:35 AM 0.000 0.000 0.000 0.000 0.000 1.24 Clear
11/28/2020 06:54 AM 32.54 33.62 34.88 63.50 30.02 x 32.46 1.34 NW 2.01 NW 2.24 NW No 0.000 No Precipitation 11/22/2020 12:31 AM 11/22/2020 12:35 AM 0.000 0.000 0.000 0.000 0.000 1.24 Clear
11/28/2020 06:55 AM 32.54 33.62 34.88 63.50 30.02 x 32.46 1.57 NW 1.79 N 2.24 NW No 0.000 No Precipitation 11/22/2020 12:31 AM 11/22/2020 12:35 AM 0.000 0.000 0.000 0.000 0.000 1.24 Clear
11/28/2020 06:56 AM 32.72 33.80 35.06 63.50 30.02 x 32.46 1.79 NW 1.57 N 2.68 N No 0.000 No Precipitation 11/22/2020 12:31 AM 11/22/2020 12:35 AM 0.000 0.000 0.000 0.000 0.000 1.24 Clear
11/28/2020 06:58 AM 33.26 34.34 35.78 63.50 30.02 x 32.46 1.79 NW 2.01 NW 2.68 N No 0.000 No Precipitation 11/22/2020 12:31 AM 11/22/2020 12:35 AM 0.000 0.000 0.000 0.000 0.000 1.24 Clear
11/28/2020 06:59 AM 33.08 34.16 35.42 63.50 30.02 x 32.46 2.01 NW 2.24 NW 2.68 N No 0.000 No Precipitation 11/22/2020 12:31 AM 11/22/2020 12:35 AM 0.000 0.000 0.000 0.000 0.000 1.24 Clear
11/28/2020 07:00 AM 32.90 33.62 34.70 63.50 30.02 x 32.46 2.24 NW 2.46 NW 2.68 N No 0.000 No Precipitation 11/22/2020 12:31 AM 11/22/2020 12:35 AM 0.000 0.000 0.000 0.000 0.000 1.24 Clear
11/28/2020 07:01 AM 33.08 33.80 34.88 63.50 30.02 x 32.46 2.46 NW 2.46 NW 2.68 N No 0.000 No Precipitation 11/22/2020 12:31 AM 11/22/2020 12:35 AM 0.000 0.000 0.000 0.000 0.000 1.24 Clear
11/28/2020 07:02 AM 33.26 34.16 35.24 63.50 30.02 x 32.46 2.46 NW 2.46 NW 2.68 N No 0.000 No Precipitation 11/22/2020 12:31 AM 11/22/2020 12:35 AM 0.000 0.000 0.000 0.000 0.000 1.24 Clear
11/28/2020 07:04 AM 32.90 33.44 34.16 63.50 30.02 x 32.46 2.68 NW 2.46 NW 3.13 NW No 0.000 No Precipitation 11/22/2020 12:31 AM 11/22/2020 12:35 AM 0.000 0.000 0.000 0.000 0.000 1.24 Clear
11/28/2020 07:05 AM 32.90 33.44 34.34 63.50 30.02 x 32.46 2.46 NW 2.46 NW 3.13 NW No 0.000 No Precipitation 11/22/2020 12:31 AM 11/22/2020 12:35 AM 0.000 0.000 0.000 0.000 0.000 1.24 Clear
11/28/2020 07:06 AM 32.90 33.62 34.52 63.50 30.02 x 32.46 2.24 NW 2.01 NW 3.13 NW No 0.000 No Precipitation 11/22/2020 12:31 AM 11/22/2020 12:35 AM 0.000 0.000 0.000 0.000 0.000 1.24 Clear
11/28/2020 07:07 AM 33.26 33.98 34.88 63.50 30.02 x 32.46 2.01 NW 1.79 N 3.13 NW No 0.000 No Precipitation 11/22/2020 12:31 AM 11/22/2020 12:35 AM 0.000 0.000 0.000 0.000 0.000 1.24 Clear
11/28/2020 07:08 AM 33.44 34.16 35.24 63.50 30.02 x 32.46 1.79 N 1.79 NW 3.13 NW No 0.000 No Precipitation 11/22/2020 12:31 AM 11/22/2020 12:35 AM 0.000 0.000 0.000 0.000 0.000 1.24 Clear
11/28/2020 07:09 AM 33.44 34.16 35.24 63.50 30.02 x 32.46 1.79 N 1.57 N 3.13 NW No 0.000 No Precipitation 11/22/2020 12:31 AM 11/22/2020 12:35 AM 0.000 0.000 0.000 0.000 0.000 1.24 Clear
11/28/2020 07:10 AM 33.62 34.34 35.24 63.50 30.02 x 32.46 1.79 N 1.79 N 3.13 NW No 0.000 No Precipitation 11/22/2020 12:31 AM 11/22/2020 12:35 AM 0.000 0.000 0.000 0.000 0.000 1.24 Clear
11/28/2020 07:11 AM 33.80 34.52 35.42 63.50 30.02 x 32.46 1.79 N 1.79 N 3.13 NW No 0.000 No Precipitation 11/22/2020 12:31 AM 11/22/2020 12:35 AM 0.000 0.000 0.000 0.000 0.000 1.24 Clear
11/28/2020 07:12 AM 33.98 34.70 35.60 63.50 30.02 x 32.46 1.79 N 1.34 NW 3.13 NW No 0.000 No Precipitation 11/22/2020 12:31 AM 11/22/2020 12:35 AM 0.000 0.000 0.000 0.000 0.000 1.24 Clear
11/28/2020 07:13 AM 34.16 34.88 35.60 63.50 30.02 x 32.46 1.79 N 2.01 NW 3.13 NW No 0.000 No Precipitation 11/22/2020 12:31 AM 11/22/2020 12:35 AM 0.000 0.000 0.000 0.000 0.000 1.24 Clear
11/28/2020 07:14 AM 34.34 34.88 35.42 63.50 30.02 x 32.46 1.79 NW 1.79 NW 2.68 NW No 0.000 No Precipitation 11/22/2020 12:31 AM 11/22/2020 12:35 AM 0.000 0.000 0.000 0.000 0.000 1.24 Clear
11/28/2020 07:15 AM 34.52 34.88 35.06 63.50 30.02 x 32.46 1.57 NW 1.57 N 2.68 N No 0.000 No Precipitation 11/22/2020 12:31 AM 11/22/2020 12:35 AM 0.000 0.000 0.000 0.000 0.000 1.24 Clear
11/28/2020 07:16 AM 34.52 34.52 34.52 63.50 30.02 x 32.46 1.34 N 1.34 NW 2.68 N No 0.000 No Precipitation 11/22/2020 12:31 AM 11/22/2020 12:35 AM 0.000 0.000 0.000 0.000 0.000 1.24 Clear
11/28/2020 07:17 AM 34.52 34.34 34.34 63.50 30.02 99.0 32.46 0.89 NW 0.67 N 2.68 N No 0.000 No Precipitation 11/22/2020 12:31 AM 11/22/2020 12:35 AM 0.000 0.000 0.000 0.000 0.000 1.24 Clear
11/28/2020 07:18 AM 34.34 33.80 33.08 63.50 30.02 95.0 32.46 0.67 NW 0.45 W 2.68 N No 0.000 No Precipitation 11/22/2020 12:31 AM 11/22/2020 12:35 AM 0.000 0.000 0.000 0.000 0.000 1.24 Clear
11/28/2020 07:19 AM 33.98 33.26 31.82 63.50 30.02 92.0 32.46 0.45 W 0.45 W 2.68 N No 0.000 No Precipitation 11/22/2020 12:31 AM 11/22/2020 12:35 AM 0.000 0.000 0.000 0.000 0.000 1.24 Clear
11/28/2020 07:20 AM 33.98 33.08 31.46 63.50 30.02 91.0 32.46 0.67 W 0.67 W 2.68 N No 0.000 No Precipitation 11/22/2020 12:31 AM 11/22/2020 12:35 AM 0.000 0.000 0.000 0.000 0.000 1.24 Clear
11/28/2020 07:21 AM 33.80 32.54 30.92 63.50 30.02 89.0 32.46 0.89 W 0.89 W 2.68 N No 0.000 No Precipitation 11/22/2020 12:31 AM 11/22/2020 12:35 AM 0.000 0.000 0.000 0.000 0.000 1.24 Clear
11/28/2020 07:22 AM 33.62 32.72 30.92 63.50 30.02 89.0 32.46 0.89 W 0.89 W 2.01 NW No 0.000 No Precipitation 11/22/2020 12:31 AM 11/22/2020 12:35 AM 0.000 0.000 0.000 0.000 0.000 1.24 Clear
11/28/2020 07:23 AM 33.80 32.72 31.10 63.50 30.02 90.0 32.46 0.89 W 0.89 W 2.01 N No 0.000 No Precipitation 11/22/2020 12:31 AM 11/22/2020 12:35 AM 0.000 0.000 0.000 0.000 0.000 1.24 Clear
11/28/2020 07:24 AM 33.98 33.08 31.46 63.50 30.02 91.0 32.46 0.89 W 1.34 SW 1.79 N No 0.000 No Precipitation 11/22/2020 12:31 AM 11/22/2020 12:35 AM 0.000 0.000 0.000 0.000 0.000 1.24 Clear
11/28/2020 07:25 AM 33.80 32.72 30.92 63.50 30.02 89.0 32.46 1.12 W 1.12 W 1.57 NW No 0.000 No Precipitation 11/22/2020 12:31 AM 11/22/2020 12:35 AM 0.000 0.000 0.000 0.000 0.000 1.24 Clear
11/28/2020 07:26 AM 33.62 32.54 30.56 63.50 30.02 88.0 32.46 0.89 W 0.67 W 1.57 W No 0.000 No Precipitation 11/22/2020 12:31 AM 11/22/2020 12:35 AM 0.000 0.000 0.000 0.000 0.000 1.24 Clear
11/28/2020 07:27 AM 33.62 32.36 30.38 63.50 30.02 88.0 32.46 0.67 W 0.22 SW 1.57 W No 0.000 No Precipitation 11/22/2020 12:31 AM 11/22/2020 12:35 AM 0.000 0.000 0.000 0.000 0.000 1.24 Clear
11/28/2020 07:28 AM 33.62 32.36 30.20 63.50 30.02 87.0 32.46 0.45 SW 0.67 S 1.57 W No 0.000 No Precipitation 11/22/2020 12:31 AM 11/22/2020 12:35 AM 0.000 0.000 0.000 0.000 0.000 1.24 Clear
11/28/2020 07:30 AM 33.80 32.72 31.10 63.50 30.02 90.0 32.46 0.45 S 0.45 W 1.57 W No 0.000 No Precipitation 11/22/2020 12:31 AM 11/22/2020 12:35 AM 0.000 0.000 0.000 0.000 0.000 1.24 Clear
11/28/2020 07:31 AM 33.98 33.08 31.64 63.50 30.02 91.0 32.46 0.45 W 0.45 SE 1.34 SW No 0.000 No Precipitation 11/22/2020 12:31 AM 11/22/2020 12:35 AM 0.000 0.000 0.000 0.000 0.000 1.24 Clear
11/28/2020 07:32 AM 34.16 33.08 31.64 63.50 30.02 90.0 32.46 0.22 SE 0.22 W 1.34 SW No 0.000 No Precipitation 11/22/2020 12:31 AM 11/22/2020 12:35 AM 0.000 0.000 0.000 0.000 0.000 1.24 Clear
11/28/2020 07:33 AM 34.34 33.44 31.82 63.50 30.02 90.0 32.46 0.22 W 0.45 W 1.34 SW No 0.000 No Precipitation 11/22/2020 12:31 AM 11/22/2020 12:35 AM 0.000 0.000 0.000 0.000 0.000 1.24 Clear
11/28/2020 07:34 AM 34.70 33.80 32.36 63.50 30.02 91.0 32.46 0.45 W 0.67 S 1.34 SW No 0.000 No Precipitation 11/22/2020 12:31 AM 11/22/2020 12:35 AM 0.000 0.000 0.000 0.000 0.000 1.24 Clear
11/28/2020 07:35 AM 34.88 33.80 32.00 63.50 30.02 89.0 32.46 0.67 S 0.45 SW 1.34 SE No 0.000 No Precipitation 11/22/2020 12:31 AM 11/22/2020 12:35 AM 0.000 0.000 0.000 0.000 0.000 1.24 Clear
11/28/2020 07:37 AM 35.24 33.98 32.18 63.50 30.02 89.0 32.46 0.45 SW 0.45 SW 1.34 SE No 0.000 No Precipitation 11/22/2020 12:31 AM 11/22/2020 12:35 AM 0.000 0.000 0.000 0.000 0.000 1.24 Clear
11/28/2020 07:38 AM 35.42 34.34 32.36 63.50 30.02 88.0 32.46 0.45 SW 0.67 W 1.34 SE No 0.000 No Precipitation 11/22/2020 12:31 AM 11/22/2020 12:35 AM 0.000 0.000 0.000 0.000 0.000 1.24 Clear
11/28/2020 07:39 AM 35.96 34.52 32.54 63.50 30.02 87.0 32.46 0.45 W 0.89 NW 1.34 SE No 0.000 No Precipitation 11/22/2020 12:31 AM 11/22/2020 12:35 AM 0.000 0.000 0.000 0.000 0.000 1.24 Clear
11/28/2020 07:40 AM 36.50 34.88 32.36 63.50 30.02 85.0 32.46 0.67 NW 0.89 W 1.34 SE No 0.000 No Precipitation 11/22/2020 12:31 AM 11/22/2020 12:35 AM 0.000 0.000 0.000 0.000 0.000 1.24 Clear
11/28/2020 07:41 AM 36.50 34.88 32.36 63.50 30.02 83.0 32.46 0.89 NW 0.89 NW 1.34 SE No 0.000 No Precipitation 11/22/2020 12:31 AM 11/22/2020 12:35 AM 0.000 0.000 0.000 0.000 0.000 1.24 Clear
11/28/2020 07:42 AM 36.68 34.70 32.00 63.50 30.02 83.0 32.46 1.12 NW 1.12 NW 1.34 SE No 0.000 No Precipitation 11/22/2020 12:31 AM 11/22/2020 12:35 AM 0.000 0.000 0.000 0.000 0.000 1.24 Clear
11/28/2020 07:43 AM 36.86 34.70 31.46 63.50 30.02 81.0 32.46 1.12 NW 0.89 NW 1.57 W No 0.000 No Precipitation 11/22/2020 12:31 AM 11/22/2020 12:35 AM 0.000 0.000 0.000 0.000 0.000 1.24 Clear
11/28/2020 07:44 AM 36.86 34.70 31.64 63.50 30.02 81.0 32.46 1.12 NW 1.34 NW 1.57 W No 0.000 No Precipitation 11/22/2020 12:31 AM 11/22/2020 12:35 AM 0.000 0.000 0.000 0.000 0.000 1.24 Clear
11/28/2020 07:45 AM 36.86 34.88 31.82 63.50 30.02 82.0 32.46 1.12 NW 1.34 NW 1.79 NW No 0.000 No Precipitation 11/22/2020 12:31 AM 11/22/2020 12:35 AM 0.000 0.000 0.000 0.000 0.000 1.24 Clear
11/28/2020 07:46 AM 36.86 34.88 32.00 63.50 30.02 82.0 32.46 1.34 NW 1.34 NW 2.01 NW No 0.000 No Precipitation 11/22/2020 12:31 AM 11/22/2020 12:35 AM 0.000 0.000 0.000 0.000 0.000 1.24 Clear
11/28/2020 07:47 AM 37.04 35.06 32.18 63.50 30.02 82.0 32.46 1.12 NW 0.67 N 2.01 NW No 0.000 No Precipitation 11/22/2020 12:31 AM 11/22/2020 12:35 AM 0.000 0.000 0.000 0.000 0.000 1.24 Clear
11/28/2020 07:48 AM 37.22 35.24 32.54 63.50 30.02 83.0 32.46 1.12 NW 0.89 NW 2.01 NW No 0.000 No Precipitation 11/22/2020 12:31 AM 11/22/2020 12:35 AM 0.000 0.000 0.000 0.000 0.000 1.24 Clear
11/28/2020 07:49 AM 37.40 35.78 33.26 63.50 30.02 85.0 32.46 1.12 NW 0.89 NE 2.01 NW No 0.000 No Precipitation 11/22/2020 12:31 AM 11/22/2020 12:35 AM 0.000 0.000 0.000 0.000 0.000 1.24 Clear
11/28/2020 07:50 AM 37.58 35.78 33.08 63.50 30.02 83.0 32.46 0.89 NW 1.12 N 2.01 NW No 0.000 No Precipitation 11/22/2020 12:31 AM 11/22/2020 12:35 AM 0.000 0.000 0.000 0.000 0.000 1.24 Clear
11/28/2020 07:51 AM 38.12 35.78 32.54 63.50 30.02 80.0 32.46 0.89 NW 0.67 NW 2.01 NW No 0.000 No Precipitation 11/22/2020 12:31 AM 11/22/2020 12:35 AM 0.000 0.000 0.000 0.000 0.000 1.24 Clear
11/28/2020 07:52 AM 38.66 36.14 32.54 63.50 30.02 78.0 32.46 0.89 N 0.89 NW 2.01 NW No 0.000 No Precipitation 11/22/2020 12:31 AM 11/22/2020 12:35 AM 0.000 0.000 0.000 0.000 0.000 1.24 Clear
11/28/2020 07:53 AM 39.38 36.86 33.26 63.50 30.02 78.0 32.46 0.89 NW 1.34 NW 2.01 NW No 0.000 No Precipitation 11/22/2020 12:31 AM 11/22/2020 12:35 AM 0.000 0.000 0.000 0.000 0.000 1.24 Clear
11/28/2020 07:54 AM 39.74 37.22 33.80 63.50 30.02 79.0 32.46 0.89 NW 1.34 N 2.01 NW No 0.000 No Precipitation 11/22/2020 12:31 AM 11/22/2020 12:35 AM 0.000 0.000 0.000 0.000 0.000 1.24 Clear
11/28/2020 07:55 AM 39.74 37.22 33.80 63.50 30.02 79.0 32.46 0.89 NW 1.12 W 2.01 NW No 0.000 No Precipitation 11/22/2020 12:31 AM 11/22/2020 12:35 AM 0.000 0.000 0.000 0.000 0.000 1.24 Clear
11/28/2020 07:56 AM 39.56 37.22 33.98 63.50 30.02 80.0 32.46 0.89 NW 1.12 NW 1.79 NW No 0.000 No Precipitation 11/22/2020 12:31 AM 11/22/2020 12:35 AM 0.000 0.000 0.000 0.000 0.000 1.24 Clear
11/28/2020 07:57 AM 39.56 37.22 33.98 63.50 30.02 80.0 32.46 1.12 NW 1.12 N 2.01 NW No 0.000 No Precipitation 11/22/2020 12:31 AM 11/22/2020 12:35 AM 0.000 0.000 0.000 0.000 0.000 1.24 Clear
11/28/2020 07:58 AM 39.56 37.22 34.16 63.50 30.02 81.0 32.46 1.34 NW 0.89 N 2.01 NW No 0.000 No Precipitation 11/22/2020 12:31 AM 11/22/2020 12:35 AM 0.000 0.000 0.000 0.000 0.000 1.24 Clear
11/28/2020 07:59 AM 39.56 37.40 34.34 63.50 30.02 82.0 32.46 1.34 N 1.57 N 2.01 NW No 0.000 No Precipitation 11/22/2020 12:31 AM 11/22/2020 12:35 AM 0.000 0.000 0.000 0.000 0.000 1.24 Clear
11/28/2020 08:01 AM 39.74 37.58 34.70 63.50 30.02 82.0 32.46 1.57 NW 1.12 NW 2.01 NW No 0.000 No Precipitation 11/22/2020 12:31 AM 11/22/2020 12:35 AM 0.000 0.000 0.000 0.000 0.000 1.24 Clear
11/28/2020 08:02 AM 39.74 37.58 34.70 63.50 30.02 82.0 32.46 1.34 NW 1.57 W 2.01 NW No 0.000 No Precipitation 11/22/2020 12:31 AM 11/22/2020 12:35 AM 0.000 0.000 0.000 0.000 0.000 1.24 Clear
11/28/2020 08:03 AM 39.92 37.58 34.70 63.50 30.02 82.0 32.46 1.12 W 1.57 W 2.01 NW No 0.000 No Precipitation 11/22/2020 12:31 AM 11/22/2020 12:35 AM 0.000 0.000 0.000 0.000 0.000 1.24 Clear
11/28/2020 08:04 AM 39.92 37.58 34.70 63.50 30.02 81.0 32.46 1.12 W 0.89 W 2.01 NW No 0.000 No Precipitation 11/22/2020 12:31 AM 11/22/2020 12:35 AM 0.000 0.000 0.000 0.000 0.000 1.24 Clear
11/28/2020 08:05 AM 39.92 37.58 34.52 63.50 30.02 81.0 32.46 1.12 W 1.12 W 2.01 NW No 0.000 No Precipitation 11/22/2020 12:31 AM 11/22/2020 12:35 AM 0.000 0.000 0.000 0.000 0.000 1.24 Clear
11/28/2020 08:06 AM 39.92 37.58 34.52 63.50 30.02 80.0 32.46 1.12 W 1.34 W 2.01 NW No 0.000 No Precipitation 11/22/2020 12:31 AM 11/22/2020 12:35 AM 0.000 0.000 0.000 0.000 0.000 1.24 Clear
11/28/2020 08:07 AM 40.28 37.94 34.52 63.50 30.02 80.0 32.46 1.34 W 0.67 W 2.01 NW No 0.000 No Precipitation 11/22/2020 12:31 AM 11/22/2020 12:35 AM 0.000 0.000 0.000 0.000 0.000 1.24 Clear
11/28/2020 08:08 AM 40.46 37.76 34.34 63.50 30.02 78.0 32.46 1.34 NW 0.89 NW 2.01 NW No 0.000 No Precipitation 11/22/2020 12:31 AM 11/22/2020 12:35 AM 0.000 0.000 0.000 0.000 0.000 1.24 Clear
11/28/2020 08:09 AM 40.46 37.76 34.34 63.50 30.02 78.0 32.46 1.34 W 1.79 W 2.68 W No 0.000 No Precipitation 11/22/2020 12:31 AM 11/22/2020 12:35 AM 0.000 0.000 0.000 0.000 0.000 1.24 Clear
11/28/2020 08:10 AM 40.46 37.76 34.16 63.50 30.02 78.0 32.46 1.57 W 1.57 W 2.68 W No 0.000 No Precipitation 11/22/2020 12:31 AM 11/22/2020 12:35 AM 0.000 0.000 0.000 0.000 0.000 1.24 Clear
11/28/2020 08:11 AM 40.46 37.76 33.98 63.50 30.02 77.0 32.46 1.57 W 1.79 W 2.68 W No 0.000 No Precipitation 11/22/2020 12:31 AM 11/22/2020 12:35 AM 0.000 0.000 0.000 0.000 0.000 1.24 Clear
11/28/2020 08:12 AM 40.46 37.76 34.16 63.50 30.02 78.0 32.46 1.79 W 0.89 NW 2.68 W No 0.000 No Precipitation 11/22/2020 12:31 AM 11/22/2020 12:35 AM 0.000 0.000 0.000 0.000 0.000 1.24 Clear
11/28/2020 08:13 AM 40.64 38.12 34.70 63.50 30.02 79.0 32.46 1.57 W 1.12 NW 2.68 W No 0.000 No Precipitation 11/22/2020 12:31 AM 11/22/2020 12:35 AM 0.000 0.000 0.000 0.000 0.000 1.24 Clear
11/28/2020 08:14 AM 40.82 38.30 34.88 63.50 30.02 79.0 32.46 1.12 NW 1.34 NW 2.68 W No 0.000 No Precipitation 11/22/2020 12:31 AM 11/22/2020 12:35 AM 0.000 0.000 0.000 0.000 0.000 1.24 Clear
11/28/2020 08:15 AM 40.82 38.12 34.70 63.50 30.02 78.0 32.46 1.12 NW 1.12 N 2.68 W No 0.000 No Precipitation 11/22/2020 12:31 AM 11/22/2020 12:35 AM 0.000 0.000 0.000 0.000 0.000 1.24 Clear
11/28/2020 08:16 AM 41.00 38.12 34.52 63.50 30.02 77.0 32.46 1.12 NW 0.67 W 2.68 W No 0.000 No Precipitation 11/22/2020 12:31 AM 11/22/2020 12:35 AM 0.000 0.000 0.000 0.000 0.000 1.24 Clear
11/28/2020 08:17 AM 41.00 38.12 34.34 63.50 30.02 76.0 32.46 0.89 NW 0.45 W 2.68 W No 0.000 No Precipitation 11/22/2020 12:31 AM 11/22/2020 12:35 AM 0.000 0.000 0.000 0.000 0.000 1.24 Clear
11/28/2020 08:18 AM 41.36 38.30 34.52 63.50 30.02 76.0 32.46 0.45 NW 0.22 NE 2.68 W No 0.000 No Precipitation 11/22/2020 12:31 AM 11/22/2020 12:35 AM 0.000 0.000 0.000 0.000 0.000 1.24 Clear
11/28/2020 08:19 AM 41.90 38.84 34.88 63.50 30.02 76.0 32.46 0.45 SW 0.89 NW 2.24 W No 0.000 No Precipitation 11/22/2020 12:31 AM 11/22/2020 12:35 AM 0.000 0.000 0.000 0.000 0.000 1.24 Clear
11/28/2020 08:20 AM 42.62 39.20 34.88 63.50 30.02 74.0 32.46 0.67 NW 0.89 N 2.24 W No 0.000 No Precipitation 11/22/2020 12:31 AM 11/22/2020 12:35 AM 0.000 0.000 0.000 0.000 0.000 1.24 Clear
11/28/2020 08:21 AM 42.98 39.38 34.88 63.50 30.02 73.0 32.46 1.12 NW 1.12 N 2.24 W No 0.000 No Precipitation 11/22/2020 12:31 AM 11/22/2020 12:35 AM 0.000 0.000 0.000 0.000 0.000 1.24 Clear
11/28/2020 08:22 AM 42.98 39.38 34.52 63.50 30.02 72.0 32.46 1.12 NW 1.12 N 1.79 W No 0.000 No Precipitation 11/22/2020 12:31 AM 11/22/2020 12:35 AM 0.000 0.000 0.000 0.000 0.000 1.24 Clear
11/28/2020 08:23 AM 42.80 39.20 34.34 63.50 30.02 71.0 32.46 0.89 N 1.12 NE 1.79 W No 0.000 No Precipitation 11/22/2020 12:31 AM 11/22/2020 12:35 AM 0.000 0.000 0.000 0.000 0.000 1.24 Clear
11/28/2020 08:24 AM 42.98 39.20 34.52 63.50 30.02 72.0 32.46 0.89 NW 0.67 NE 1.79 W No 0.000 No Precipitation 11/22/2020 12:31 AM 11/22/2020 12:35 AM 0.000 0.000 0.000 0.000 0.000 1.24 Clear
11/28/2020 08:25 AM 43.52 39.92 35.42 63.50 30.02 72.0 32.46 0.89 E 0.22 SW 1.79 W No 0.000 No Precipitation 11/22/2020 12:31 AM 11/22/2020 12:35 AM 0.000 0.000 0.000 0.000 0.000 1.24 Clear
11/28/2020 08:26 AM 44.24 40.28 35.42 63.50 30.02 71.0 32.46 0.89 E 0.89 S 1.79 W No 0.000 No Precipitation 11/22/2020 12:31 AM 11/22/2020 12:35 AM 0.000 0.000 0.000 0.000 0.000 1.24 Clear
11/28/2020 08:27 AM 44.60 40.46 35.24 63.50 30.02 69.0 32.46 0.67 S 0.89 W 1.79 W No 0.000 No Precipitation 11/22/2020 12:31 AM 11/22/2020 12:35 AM 0.000 0.000 0.000 0.000 0.000 1.24 Clear
11/28/2020 08:28 AM 44.78 40.46 35.06 63.50 30.02 68.0 32.46 0.45 N 0.67 N 1.79 W No 0.000 No Precipitation 11/22/2020 12:31 AM 11/22/2020 12:35 AM 0.000 0.000 0.000 0.000 0.000 1.24 Clear
11/28/2020 08:29 AM 44.60 40.28 34.88 63.50 30.02 68.0 32.46 0.67 N 1.34 NW 1.79 NW No 0.000 No Precipitation 11/22/2020 12:31 AM 11/22/2020 12:35 AM 0.000 0.000 0.000 0.000 0.000 1.24 Clear
11/28/2020 08:30 AM 44.60 40.10 34.88 63.50 30.02 69.0 32.46 1.12 NW 0.89 NW 2.24 W No 0.000 No Precipitation 11/22/2020 12:31 AM 11/22/2020 12:35 AM 0.000 0.000 0.000 0.000 0.000 1.24 Clear
11/28/2020 08:31 AM 44.24 39.92 34.88 63.50 30.02 69.0 32.46 1.12 NW 0.89 NW 2.24 W No 0.000 No Precipitation 11/22/2020 12:31 AM 11/22/2020 12:35 AM 0.000 0.000 0.000 0.000 0.000 1.24 Clear
11/28/2020 08:32 AM 44.06 39.92 34.52 63.50 30.02 69.0 32.46 1.12 NW 1.34 NW 2.24 W No 0.000 No Precipitation 11/22/2020 12:31 AM 11/22/2020 12:35 AM 0.000 0.000 0.000 0.000 0.000 1.24 Clear
11/28/2020 08:33 AM 43.88 39.74 34.70 63.50 30.02 69.0 32.46 0.89 NW 0.67 NW 2.24 W No 0.000 No Precipitation 11/22/2020 12:31 AM 11/22/2020 12:35 AM 0.000 0.000 0.000 0.000 0.000 1.24 Clear
11/28/2020 08:34 AM 43.88 39.92 34.70 63.50 30.02 70.0 32.46 0.67 N 0.67 NW 2.24 W No 0.000 No Precipitation 11/22/2020 12:31 AM 11/22/2020 12:35 AM 0.000 0.000 0.000 0.000 0.000 1.24 Clear
11/28/2020 08:35 AM 43.88 39.74 34.34 63.50 30.02 68.0 32.46 0.89 N 0.67 W 2.24 W No 0.000 No Precipitation 11/22/2020 12:31 AM 11/22/2020 12:35 AM 0.000 0.000 0.000 0.000 0.000 1.24 Clear
11/28/2020 08:36 AM 43.88 39.74 34.16 63.50 30.02 68.0 32.46 0.89 NW 0.89 NW 2.24 W No 0.000 No Precipitation 11/22/2020 12:31 AM 11/22/2020 12:35 AM 0.000 0.000 0.000 0.000 0.000 1.24 Clear
11/28/2020 08:37 AM 44.06 39.74 34.34 63.50 30.02 68.0 32.46 0.89 NW 0.45 NE 2.24 W No 0.000 No Precipitation 11/22/2020 12:31 AM 11/22/2020 12:35 AM 0.000 0.000 0.000 0.000 0.000 1.24 Clear
11/28/2020 08:38 AM 44.24 40.10 34.70 63.50 30.02 68.0 32.46 0.67 W 1.12 W 2.24 W No 0.000 No Precipitation 11/22/2020 12:31 AM 11/22/2020 12:35 AM 0.000 0.000 0.000 0.000 0.000 1.24 Clear
11/28/2020 08:39 AM 44.78 40.46 34.88 63.50 30.02 68.0 32.46 0.89 S 1.57 SW 1.79 W No 0.000 No Precipitation 11/22/2020 12:31 AM 11/22/2020 12:35 AM 0.000 0.000 0.000 0.000 0.000 1.24 Clear
11/28/2020 08:41 AM 45.68 40.64 34.34 63.50 30.02 64.0 32.46 1.57 S 0.89 S 2.46 S No 0.000 No Precipitation 11/22/2020 12:31 AM 11/22/2020 12:35 AM 0.000 0.000 0.000 0.000 0.000 1.24 Clear
11/28/2020 08:42 AM 45.86 40.64 33.98 63.50 30.02 63.0 32.46 0.89 S 0.45 SW 2.46 S No 0.000 No Precipitation 11/22/2020 12:31 AM 11/22/2020 12:35 AM 0.000 0.000 0.000 0.000 0.000 1.24 Clear
11/28/2020 08:43 AM 46.40 40.82 33.98 63.50 30.02 62.0 32.46 0.67 E 0.89 E 2.46 S No 0.000 No Precipitation 11/22/2020 12:31 AM 11/22/2020 12:35 AM 0.000 0.000 0.000 0.000 0.000 1.24 Clear
11/28/2020 08:44 AM 46.58 40.82 33.80 63.50 30.02 61.0 32.46 1.12 S 1.57 S 2.46 S No 0.000 No Precipitation 11/22/2020 12:31 AM 11/22/2020 12:35 AM 0.000 0.000 0.000 0.000 0.000 1.24 Clear
11/28/2020 08:45 AM 46.40 40.46 33.08 63.50 30.02 59.0 32.46 1.34 E 1.34 SW 2.46 S No 0.000 No Precipitation 11/22/2020 12:31 AM 11/22/2020 12:35 AM 0.000 0.000 0.000 0.000 0.000 1.24 Clear
11/28/2020 08:46 AM 46.40 40.46 32.54 63.50 30.02 58.0 32.46 1.12 E 1.12 SE 2.46 S No 0.000 No Precipitation 11/22/2020 12:31 AM 11/22/2020 12:35 AM 0.000 0.000 0.000 0.000 0.000 1.24 Clear
11/28/2020 08:47 AM 46.76 40.64 32.72 63.50 30.02 58.0 32.46 0.67 SE 0.45 W 2.46 S No 0.000 No Precipitation 11/22/2020 12:31 AM 11/22/2020 12:35 AM 0.000 0.000 0.000 0.000 0.000 1.24 Clear
11/28/2020 08:48 AM 46.76 40.64 32.90 63.50 30.02 58.0 32.46 0.45 SE 0.89 S 2.46 S No 0.000 No Precipitation 11/22/2020 12:31 AM 11/22/2020 12:35 AM 0.000 0.000 0.000 0.000 0.000 1.24 Clear
11/28/2020 08:49 AM 46.94 40.82 32.90 63.50 30.02 58.0 32.46 0.67 S 0.67 S 2.46 S No 0.000 No Precipitation 11/22/2020 12:31 AM 11/22/2020 12:35 AM 0.000 0.000 0.000 0.000 0.000 1.24 Clear
11/28/2020 08:50 AM 47.30 41.18 33.44 63.50 30.02 58.0 32.46 0.89 SE 0.89 SE 2.24 S No 0.000 No Precipitation 11/22/2020 12:31 AM 11/22/2020 12:35 AM 0.000 0.000 0.000 0.000 0.000 1.24 Clear
11/28/2020 08:51 AM 47.30 41.00 33.08 63.50 30.02 57.0 32.46 0.89 SE 0.89 E 2.24 S No 0.000 No Precipitation 11/22/2020 12:31 AM 11/22/2020 12:35 AM 0.000 0.000 0.000 0.000 0.000 1.24 Clear
11/28/2020 08:52 AM 47.48 41.18 33.08 63.50 30.02 57.0 32.46 0.67 E 1.34 E 2.24 S No 0.000 No Precipitation 11/22/2020 12:31 AM 11/22/2020 12:35 AM 0.000 0.000 0.000 0.000 0.000 1.24 Clear
11/28/2020 08:53 AM 47.66 41.36 33.44 63.50 30.02 57.0 32.46 1.12 E 2.01 SE 2.24 S No 0.000 No Precipitation 11/22/2020 12:31 AM 11/22/2020 12:35 AM 0.000 0.000 0.000 0.000 0.000 1.24 Clear
11/28/2020 08:54 AM 48.20 41.72 33.80 63.50 30.02 57.0 32.46 1.34 SE 2.01 E 2.24 SE No 0.000 No Precipitation 11/22/2020 12:31 AM 11/22/2020 12:35 AM 0.000 0.000 0.000 0.000 0.000 1.24 Clear
11/28/2020 08:55 AM 48.38 41.72 33.62 63.50 30.02 56.0 32.46 1.34 SE 1.12 E 2.24 SE No 0.000 No Precipitation 11/22/2020 12:31 AM 11/22/2020 12:35 AM 0.000 0.000 0.000 0.000 0.000 1.24 Clear
11/28/2020 08:56 AM 48.02 41.18 32.54 63.50 30.02 55.0 32.46 1.34 SE 1.12 E 2.24 SE No 0.000 No Precipitation 11/22/2020 12:31 AM 11/22/2020 12:35 AM 0.000 0.000 0.000 0.000 0.000 1.24 Clear
11/28/2020 08:57 AM 47.66 41.00 32.72 63.50 30.02 56.0 32.46 1.34 E 1.34 SE 2.24 SE No 0.000 No Precipitation 11/22/2020 12:31 AM 11/22/2020 12:35 AM 0.000 0.000 0.000 0.000 0.000 1.24 Clear
11/28/2020 08:58 AM 47.48 41.00 32.72 63.50 30.02 56.0 32.46 1.34 E 2.24 E 2.24 SE No 0.000 No Precipitation 11/22/2020 12:31 AM 11/22/2020 12:35 AM 0.000 0.000 0.000 0.000 0.000 1.24 Clear
11/28/2020 08:59 AM 47.66 41.18 32.90 63.50 30.02 56.0 32.46 1.34 E 1.12 E 2.24 SE No 0.000 No Precipitation 11/22/2020 12:31 AM 11/22/2020 12:35 AM 0.000 0.000 0.000 0.000 0.000 1.24 Clear
11/28/2020 09:00 AM 47.66 41.36 33.44 63.50 30.02 57.0 32.46 1.12 E 0.67 NE 2.24 SE No 0.000 No Precipitation 11/22/2020 12:31 AM 11/22/2020 12:35 AM 0.000 0.000 0.000 0.000 0.000 1.24 Clear
11/28/2020 09:01 AM 48.02 41.72 33.98 63.50 30.02 58.0 32.46 0.67 E 0.45 N 2.24 SE No 0.000 No Precipitation 11/22/2020 12:31 AM 11/22/2020 12:35 AM 0.000 0.000 0.000 0.000 0.000 1.24 Clear
11/28/2020 09:02 AM 48.56 42.08 33.98 63.50 30.02 57.0 32.46 0.89 E 1.57 E 2.24 SE No 0.000 No Precipitation 11/22/2020 12:31 AM 11/22/2020 12:35 AM 0.000 0.000 0.000 0.000 0.000 1.24 Clear
11/28/2020 09:03 AM 48.74 42.08 33.98 63.50 30.02 56.0 32.46 1.34 E 1.34 SE 2.24 SE No 0.000 No Precipitation 11/22/2020 12:31 AM 11/22/2020 12:35 AM 0.000 0.000 0.000 0.000 0.000 1.24 Clear
11/28/2020 09:04 AM 48.56 41.90 33.80 63.50 30.02 56.0 32.46 1.57 E 1.57 E 2.24 SE No 0.000 No Precipitation 11/22/2020 12:31 AM 11/22/2020 12:35 AM 0.000 0.000 0.000 0.000 0.000 1.24 Clear
11/28/2020 09:05 AM 48.56 41.90 33.80 63.50 30.02 56.0 32.46 1.34 E 1.57 E 2.24 SE No 0.000 No Precipitation 11/22/2020 12:31 AM 11/22/2020 12:35 AM 0.000 0.000 0.000 0.000 0.000 1.24 Clear
11/28/2020 09:06 AM 48.56 41.90 33.80 63.50 30.02 56.0 32.46 1.34 E 1.34 E 2.24 SE No 0.000 No Precipitation 11/22/2020 12:31 AM 11/22/2020 12:35 AM 0.000 0.000 0.000 0.000 0.000 1.24 Clear
11/28/2020 09:07 AM 48.92 42.26 34.16 63.50 30.02 56.0 32.46 1.34 E 1.12 SE 2.24 SE No 0.000 No Precipitation 11/22/2020 12:31 AM 11/22/2020 12:35 AM 0.000 0.000 0.000 0.000 0.000 1.24 Clear
11/28/2020 09:08 AM 49.28 42.44 34.34 63.50 30.02 56.0 32.46 1.12 E 0.22 S 2.01 E No 0.000 No Precipitation 11/22/2020 12:31 AM 11/22/2020 12:35 AM 0.000 0.000 0.000 0.000 0.000 1.24 Clear
11/28/2020 09:09 AM 50.00 42.98 34.52 63.50 30.02 55.0 32.46 0.89 S 1.34 SW 2.01 E No 0.000 No Precipitation 11/22/2020 12:31 AM 11/22/2020 12:35 AM 0.000 0.000 0.000 0.000 0.000 1.24 Clear
11/28/2020 09:10 AM 50.18 42.98 34.34 63.50 30.02 54.0 32.46 1.12 S 1.57 SE 2.24 SE No 0.000 No Precipitation 11/22/2020 12:31 AM 11/22/2020 12:35 AM 0.000 0.000 0.000 0.000 0.000 1.24 Clear
11/28/2020 09:11 AM 50.00 42.80 33.98 63.50 30.02 54.0 32.46 1.34 SE 0.89 SW 2.68 S No 0.000 No Precipitation 11/22/2020 12:31 AM 11/22/2020 12:35 AM 0.000 0.000 0.000 0.000 0.000 1.24 Clear
11/28/2020 09:12 AM 49.82 42.62 33.98 63.50 30.02 54.0 32.46 1.34 S 0.89 SW 2.68 S No 0.000 No Precipitation 11/22/2020 12:31 AM 11/22/2020 12:35 AM 0.000 0.000 0.000 0.000 0.000 1.24 Clear
11/28/2020 09:13 AM 50.00 42.80 34.16 63.50 30.02 54.0 32.46 1.12 S 1.34 S 2.68 S No 0.000 No Precipitation 11/22/2020 12:31 AM 11/22/2020 12:35 AM 0.000 0.000 0.000 0.000 0.000 1.24 Clear
11/28/2020 09:14 AM 50.36 43.16 34.34 63.50 30.02 54.0 32.46 1.12 SW 1.57 S 2.68 S No 0.000 No Precipitation 11/22/2020 12:31 AM 11/22/2020 12:35 AM 0.000 0.000 0.000 0.000 0.000 1.24 Clear
11/28/2020 09:15 AM 50.72 43.16 34.16 63.50 30.02 53.0 32.46 0.89 S 1.34 S 2.68 S No 0.000 No Precipitation 11/22/2020 12:31 AM 11/22/2020 12:35 AM 0.000 0.000 0.000 0.000 0.000 1.24 Clear
11/28/2020 09:16 AM 51.08 43.34 34.16 63.50 30.02 52.0 32.46 1.12 SE 1.79 SE 2.68 S No 0.000 No Precipitation 11/22/2020 12:31 AM 11/22/2020 12:35 AM 0.000 0.000 0.000 0.000 0.000 1.24 Clear
11/28/2020 09:17 AM 51.08 43.34 33.98 63.50 30.02 51.0 32.46 1.34 E 1.12 E 2.68 S No 0.000 No Precipitation 11/22/2020 12:31 AM 11/22/2020 12:35 AM 0.000 0.000 0.000 0.000 0.000 1.24 Clear
11/28/2020 09:18 AM 50.90 42.98 33.26 63.50 30.02 50.0 32.46 1.57 SE 1.79 SE 2.68 S No 0.000 No Precipitation 11/22/2020 12:31 AM 11/22/2020 12:35 AM 0.000 0.000 0.000 0.000 0.000 1.24 Clear
11/28/2020 09:19 AM 50.90 42.80 33.26 63.50 30.02 50.0 32.46 1.79 SE 2.46 E 2.68 S No 0.000 No Precipitation 11/22/2020 12:31 AM 11/22/2020 12:35 AM 0.000 0.000 0.000 0.000 0.000 1.24 Clear
11/28/2020 09:20 AM 50.90 42.62 33.08 63.50 30.02 50.0 32.46 1.79 E 1.57 E 2.68 S No 0.000 No Precipitation 11/22/2020 12:31 AM 11/22/2020 12:35 AM 0.000 0.000 0.000 0.000 0.000 1.24 Clear
11/28/2020 09:21 AM 50.54 42.62 32.90 63.50 30.02 50.0 32.46 1.57 E 1.79 E 2.46 E No 0.000 No Precipitation 11/22/2020 12:31 AM 11/22/2020 12:35 AM 0.000 0.000 0.000 0.000 0.000 1.24 Clear
11/28/2020 09:22 AM 50.36 42.62 32.90 63.50 30.02 51.0 32.46 1.34 E 0.22 SE 2.46 E No 0.000 No Precipitation 11/22/2020 12:31 AM 11/22/2020 12:35 AM 0.000 0.000 0.000 0.000 0.000 1.24 Clear
11/28/2020 09:23 AM 50.72 42.80 33.08 63.50 30.02 50.0 32.46 1.12 SE 0.89 E 2.46 E No 0.000 No Precipitation 11/22/2020 12:31 AM 11/22/2020 12:35 AM 0.000 0.000 0.000 0.000 0.000 1.24 Clear
11/28/2020 09:24 AM 50.72 42.62 32.72 63.50 30.02 50.0 32.46 0.89 NE 0.67 S 2.46 E No 0.000 No Precipitation 11/22/2020 12:31 AM 11/22/2020 12:35 AM 0.000 0.000 0.000 0.000 0.000 1.24 Clear
11/28/2020 09:25 AM 50.72 42.80 33.26 63.50 30.02 50.0 32.46 1.12 NE 2.01 SE 2.46 E No 0.000 No Precipitation 11/22/2020 12:31 AM 11/22/2020 12:35 AM 0.000 0.000 0.000 0.000 0.000 1.24 Clear
11/28/2020 09:26 AM 51.26 43.16 33.08 63.50 30.02 49.0 32.46 1.57 SE 1.12 NE 2.46 E No 0.000 No Precipitation 11/22/2020 12:31 AM 11/22/2020 12:35 AM 0.000 0.000 0.000 0.000 0.000 1.24 Clear
11/28/2020 09:27 AM 51.26 42.98 32.54 63.50 30.02 48.0 32.46 1.57 SE 1.34 E 2.46 E No 0.000 No Precipitation 11/22/2020 12:31 AM 11/22/2020 12:35 AM 0.000 0.000 0.000 0.000 0.000 1.24 Clear
11/28/2020 09:28 AM 51.08 42.80 32.36 63.50 30.02 48.0 32.46 1.79 SE 3.36 SE 3.13 SE No 0.000 No Precipitation 11/22/2020 12:31 AM 11/22/2020 12:35 AM 0.000 0.000 0.000 0.000 0.000 1.24 Clear
11/28/2020 09:29 AM 51.26 42.98 32.72 63.50 30.02 49.0 32.46 2.46 SE 2.46 E 3.58 SE No 0.000 No Precipitation 11/22/2020 12:31 AM 11/22/2020 12:35 AM 0.000 0.000 0.000 0.000 0.000 1.24 Clear
11/28/2020 09:30 AM 51.44 42.80 32.18 63.50 30.02 47.0 32.46 2.68 E 2.68 E 3.58 SE No 0.000 No Precipitation 11/22/2020 12:31 AM 11/22/2020 12:35 AM 0.000 0.000 0.000 0.000 0.000 1.24 Clear
11/28/2020 09:31 AM 51.08 42.62 32.18 63.50 30.02 48.0 32.46 2.68 E 2.01 SE 3.58 E No 0.000 No Precipitation 11/22/2020 12:31 AM 11/22/2020 12:35 AM 0.000 0.000 0.000 0.000 0.000 1.24 Clear
11/28/2020 09:32 AM 50.90 42.62 32.36 63.50 30.02 49.0 32.46 2.68 E 2.68 E 3.80 E No 0.000 No Precipitation 11/22/2020 12:31 AM 11/22/2020 12:35 AM 0.000 0.000 0.000 0.000 0.000 1.24 Clear
11/28/2020 09:33 AM 50.72 42.62 32.36 63.50 30.02 49.0 32.46 2.46 E 2.24 E 3.80 E No 0.000 No Precipitation 11/22/2020 12:31 AM 11/22/2020 12:35 AM 0.000 0.000 0.000 0.000 0.000 1.24 Clear
11/28/2020 09:34 AM 50.90 42.80 32.72 63.50 30.02 49.0 32.46 2.46 E 2.46 SE 3.80 E No 0.000 No Precipitation 11/22/2020 12:31 AM 11/22/2020 12:35 AM 0.000 0.000 0.000 0.000 0.000 1.24 Clear
11/28/2020 09:35 AM 51.08 42.62 32.36 63.50 30.02 48.0 32.46 2.24 E 1.34 E 3.80 E No 0.000 No Precipitation 11/22/2020 12:31 AM 11/22/2020 12:35 AM 0.000 0.000 0.000 0.000 0.000 1.24 Clear
11/28/2020 09:36 AM 51.08 42.62 32.18 63.50 30.02 48.0 32.46 1.34 E 0.45 E 3.80 E No 0.000 No Precipitation 11/22/2020 12:31 AM 11/22/2020 12:35 AM 0.000 0.000 0.000 0.000 0.000 1.24 Clear
11/28/2020 09:37 AM 51.26 42.80 32.18 63.50 30.02 47.0 32.46 0.89 E 2.24 SE 3.80 E No 0.000 No Precipitation 11/22/2020 12:31 AM 11/22/2020 12:35 AM 0.000 0.000 0.000 0.000 0.000 1.24 Clear
11/28/2020 09:38 AM 51.44 42.80 32.18 63.50 30.02 47.0 32.46 1.34 S 2.01 S 3.80 E No 0.000 No Precipitation 11/22/2020 12:31 AM 11/22/2020 12:35 AM 0.000 0.000 0.000 0.000 0.000 1.24 Clear
11/28/2020 09:39 AM 51.62 42.80 32.00 63.50 30.02 47.0 32.46 2.46 S 4.03 SE 4.70 SE No 0.000 No Precipitation 11/22/2020 12:31 AM 11/22/2020 12:35 AM 0.000 0.000 0.000 0.000 0.000 1.24 Clear
11/28/2020 09:40 AM 51.80 42.98 32.18 63.50 30.02 47.0 32.46 2.68 S 1.12 E 4.70 SE No 0.000 No Precipitation 11/22/2020 12:31 AM 11/22/2020 12:35 AM 0.000 0.000 0.000 0.000 0.000 1.24 Clear
11/28/2020 09:41 AM 51.80 43.16 32.18 63.50 30.02 47.0 32.46 2.24 E 1.79 E 4.70 SE No 0.000 No Precipitation 11/22/2020 12:31 AM 11/22/2020 12:35 AM 0.000 0.000 0.000 0.000 0.000 1.24 Clear
11/28/2020 09:42 AM 51.80 42.98 32.00 63.50 30.02 46.0 32.46 2.01 E 1.79 E 4.70 SE No 0.000 No Precipitation 11/22/2020 12:31 AM 11/22/2020 12:35 AM 0.000 0.000 0.000 0.000 0.000 1.24 Clear
11/28/2020 09:43 AM 51.80 42.80 31.82 63.50 30.02 46.0 32.46 1.57 E 0.22 SW 4.70 SE No 0.000 No Precipitation 11/22/2020 12:31 AM 11/22/2020 12:35 AM 0.000 0.000 0.000 0.000 0.000 1.24 Clear
11/28/2020 09:44 AM 52.16 43.34 32.18 63.50 30.02 46.0 32.46 1.12 E 2.46 E 4.70 SE No 0.000 No Precipitation 11/22/2020 12:31 AM 11/22/2020 12:35 AM 0.000 0.000 0.000 0.000 0.000 1.24 Clear
11/28/2020 09:45 AM 52.70 43.70 32.54 63.50 30.02 46.0 32.46 2.01 SE 2.91 SE 4.70 SE No 0.000 No Precipitation 11/22/2020 12:31 AM 11/22/2020 12:35 AM 0.000 0.000 0.000 0.000 0.000 1.24 Clear
11/28/2020 09:46 AM 52.70 43.52 32.00 63.50 30.02 44.0 32.46 3.36 SE 3.58 E 4.70 SE No 0.000 No Precipitation 11/22/2020 12:31 AM 11/22/2020 12:35 AM 0.000 0.000 0.000 0.000 0.000 1.24 Clear
11/28/2020 09:47 AM 52.34 42.98 31.46 63.50 30.02 45.0 32.46 3.58 SE 2.46 E 4.70 SE No 0.000 No Precipitation 11/22/2020 12:31 AM 11/22/2020 12:35 AM 0.000 0.000 0.000 0.000 0.000 1.24 Clear
11/28/2020 09:48 AM 51.80 42.62 31.10 63.50 30.02 45.0 32.46 3.13 E 3.80 E 4.70 SE No 0.000 No Precipitation 11/22/2020 12:31 AM 11/22/2020 12:35 AM 0.000 0.000 0.000 0.000 0.000 1.24 Clear
11/28/2020 09:49 AM 51.62 42.80 31.46 63.50 30.02 46.0 32.46 3.13 E 1.57 E 4.70 E No 0.000 No Precipitation 11/22/2020 12:31 AM 11/22/2020 12:35 AM 0.000 0.000 0.000 0.000 0.000 1.24 Clear
11/28/2020 09:50 AM 51.80 42.80 31.82 63.50 30.02 46.0 32.46 2.68 E 2.24 SE 4.70 E No 0.000 No Precipitation 11/22/2020 12:31 AM 11/22/2020 12:35 AM 0.000 0.000 0.000 0.000 0.000 1.24 Clear
11/28/2020 09:51 AM 52.16 43.16 31.82 63.50 30.02 45.0 32.46 2.01 SE 2.01 E 4.70 E No 0.000 No Precipitation 11/22/2020 12:31 AM 11/22/2020 12:35 AM 0.000 0.000 0.000 0.000 0.000 1.24 Clear
11/28/2020 09:52 AM 52.52 43.34 32.18 63.50 30.02 45.0 32.46 2.46 E 4.03 SE 4.70 E No 0.000 No Precipitation 11/22/2020 12:31 AM 11/22/2020 12:35 AM 0.000 0.000 0.000 0.000 0.000 1.24 Clear
11/28/2020 09:53 AM 52.70 43.52 32.00 63.50 30.02 45.0 32.46 2.91 E 2.46 SE 4.70 E No 0.000 No Precipitation 11/22/2020 12:31 AM 11/22/2020 12:35 AM 0.000 0.000 0.000 0.000 0.000 1.24 Clear
11/28/2020 09:54 AM 52.70 43.52 32.36 63.50 30.02 45.0 32.46 3.13 E 3.13 E 4.70 E No 0.000 No Precipitation 11/22/2020 12:31 AM 11/22/2020 12:35 AM 0.000 0.000 0.000 0.000 0.000 1.24 Clear
11/28/2020 09:55 AM 52.52 43.52 32.36 63.50 30.02 46.0 32.46 3.13 E 2.68 NE 4.70 E No 0.000 No Precipitation 11/22/2020 12:31 AM 11/22/2020 12:35 AM 0.000 0.000 0.000 0.000 0.000 1.24 Clear
11/28/2020 09:56 AM 52.34 43.34 32.00 63.50 30.02 45.0 32.46 2.91 E 2.68 E 4.70 E No 0.000 No Precipitation 11/22/2020 12:31 AM 11/22/2020 12:35 AM 0.000 0.000 0.000 0.000 0.000 1.24 Clear
11/28/2020 09:57 AM 52.16 42.98 31.82